<?xml version="1.0" encoding="UTF-8" standalone="no" ?>
<gpx xmlns="http://www.topografix.com/GPX/1/1" xmlns:xsi="http://www.w3.org/2001/XMLSchema-instance" xsi:schemaLocation="http://www.topografix.com/GPX/1/1 http://www.topografix.com/GPX/1/1/gpx.xsd" version="1.1" creator="VisuGPX - https://www.visugpx.com">
  <metadata>
    <name>CARREFOUR DE LUYNES 10</name>
  </metadata>
  <trk>
    <name><![CDATA[CARREFOUR DE LUYNES 10]]></name>
    <trkseg>
      <trkpt lat="48.59166" lon="1.96608">
        <ele>133.28</ele>
        <time>2018-03-29T07:14:56Z</time>
      </trkpt>
      <trkpt lat="48.59167" lon="1.96608">
        <ele>133.28</ele>
        <time>2018-03-29T07:14:57Z</time>
      </trkpt>
      <trkpt lat="48.59181" lon="1.96617">
        <ele>134.72</ele>
        <time>2018-03-29T07:15:26Z</time>
      </trkpt>
      <trkpt lat="48.59182" lon="1.96616">
        <ele>134.72</ele>
        <time>2018-03-29T07:15:37Z</time>
      </trkpt>
      <trkpt lat="48.5918" lon="1.96611">
        <ele>134.24</ele>
        <time>2018-03-29T07:15:47Z</time>
      </trkpt>
      <trkpt lat="48.59177" lon="1.96605">
        <ele>134.24</ele>
        <time>2018-03-29T07:16:10Z</time>
      </trkpt>
      <trkpt lat="48.59173" lon="1.96601">
        <ele>134.24</ele>
        <time>2018-03-29T07:16:31Z</time>
      </trkpt>
      <trkpt lat="48.59172" lon="1.96601">
        <ele>133.76</ele>
        <time>2018-03-29T07:16:53Z</time>
      </trkpt>
      <trkpt lat="48.59171" lon="1.96601">
        <ele>133.76</ele>
        <time>2018-03-29T07:17:14Z</time>
      </trkpt>
      <trkpt lat="48.59171" lon="1.96599">
        <ele>133.76</ele>
        <time>2018-03-29T07:17:31Z</time>
      </trkpt>
      <trkpt lat="48.59173" lon="1.96599">
        <ele>133.76</ele>
        <time>2018-03-29T07:17:44Z</time>
      </trkpt>
      <trkpt lat="48.59177" lon="1.96602">
        <ele>133.28</ele>
        <time>2018-03-29T07:18:01Z</time>
      </trkpt>
      <trkpt lat="48.59178" lon="1.96602">
        <ele>133.28</ele>
        <time>2018-03-29T07:18:17Z</time>
      </trkpt>
      <trkpt lat="48.59178" lon="1.96604">
        <ele>133.28</ele>
        <time>2018-03-29T07:18:46Z</time>
      </trkpt>
      <trkpt lat="48.59178" lon="1.96605">
        <ele>132.8</ele>
        <time>2018-03-29T07:19:06Z</time>
      </trkpt>
      <trkpt lat="48.59178" lon="1.96605">
        <ele>132.32</ele>
        <time>2018-03-29T07:19:22Z</time>
      </trkpt>
      <trkpt lat="48.59178" lon="1.96604">
        <ele>133.28</ele>
        <time>2018-03-29T07:19:30Z</time>
      </trkpt>
      <trkpt lat="48.59179" lon="1.96605">
        <ele>133.28</ele>
        <time>2018-03-29T07:19:42Z</time>
      </trkpt>
      <trkpt lat="48.59179" lon="1.96606">
        <ele>132.8</ele>
        <time>2018-03-29T07:19:55Z</time>
      </trkpt>
      <trkpt lat="48.59177" lon="1.96607">
        <ele>132.32</ele>
        <time>2018-03-29T07:20:08Z</time>
      </trkpt>
      <trkpt lat="48.59176" lon="1.9661">
        <ele>133.28</ele>
        <time>2018-03-29T07:20:18Z</time>
      </trkpt>
      <trkpt lat="48.59177" lon="1.96611">
        <ele>127.99</ele>
        <time>2018-03-29T07:20:27Z</time>
      </trkpt>
      <trkpt lat="48.59177" lon="1.9661">
        <ele>135.68</ele>
        <time>2018-03-29T07:20:28Z</time>
      </trkpt>
      <trkpt lat="48.59178" lon="1.9661">
        <ele>130.4</ele>
        <time>2018-03-29T07:20:29Z</time>
      </trkpt>
      <trkpt lat="48.59178" lon="1.96609">
        <ele>126.55</ele>
        <time>2018-03-29T07:20:32Z</time>
      </trkpt>
      <trkpt lat="48.59179" lon="1.9661">
        <ele>137.13</ele>
        <time>2018-03-29T07:20:33Z</time>
      </trkpt>
      <trkpt lat="48.59179" lon="1.96612">
        <ele>128.47</ele>
        <time>2018-03-29T07:20:34Z</time>
      </trkpt>
      <trkpt lat="48.59179" lon="1.96612">
        <ele>134.72</ele>
        <time>2018-03-29T07:20:35Z</time>
      </trkpt>
      <trkpt lat="48.59179" lon="1.96612">
        <ele>126.55</ele>
        <time>2018-03-29T07:20:37Z</time>
      </trkpt>
      <trkpt lat="48.59179" lon="1.96612">
        <ele>138.09</ele>
        <time>2018-03-29T07:20:38Z</time>
      </trkpt>
      <trkpt lat="48.59179" lon="1.96611">
        <ele>130.88</ele>
        <time>2018-03-29T07:20:39Z</time>
      </trkpt>
      <trkpt lat="48.59179" lon="1.96611">
        <ele>133.76</ele>
        <time>2018-03-29T07:20:40Z</time>
      </trkpt>
      <trkpt lat="48.59179" lon="1.9661">
        <ele>127.51</ele>
        <time>2018-03-29T07:20:41Z</time>
      </trkpt>
      <trkpt lat="48.59179" lon="1.9661">
        <ele>136.64</ele>
        <time>2018-03-29T07:20:42Z</time>
      </trkpt>
      <trkpt lat="48.59179" lon="1.9661">
        <ele>132.8</ele>
        <time>2018-03-29T07:20:43Z</time>
      </trkpt>
      <trkpt lat="48.59179" lon="1.9661">
        <ele>129.43</ele>
        <time>2018-03-29T07:20:45Z</time>
      </trkpt>
      <trkpt lat="48.59179" lon="1.9661">
        <ele>133.28</ele>
        <time>2018-03-29T07:20:46Z</time>
      </trkpt>
      <trkpt lat="48.59179" lon="1.96611">
        <ele>125.59</ele>
        <time>2018-03-29T07:20:50Z</time>
      </trkpt>
      <trkpt lat="48.59179" lon="1.96611">
        <ele>136.64</ele>
        <time>2018-03-29T07:20:51Z</time>
      </trkpt>
      <trkpt lat="48.59179" lon="1.96612">
        <ele>131.84</ele>
        <time>2018-03-29T07:20:53Z</time>
      </trkpt>
      <trkpt lat="48.59179" lon="1.96612">
        <ele>132.32</ele>
        <time>2018-03-29T07:20:54Z</time>
      </trkpt>
      <trkpt lat="48.59178" lon="1.96613">
        <ele>127.51</ele>
        <time>2018-03-29T07:20:55Z</time>
      </trkpt>
      <trkpt lat="48.59178" lon="1.96613">
        <ele>135.68</ele>
        <time>2018-03-29T07:20:56Z</time>
      </trkpt>
      <trkpt lat="48.59179" lon="1.96613">
        <ele>132.32</ele>
        <time>2018-03-29T07:20:57Z</time>
      </trkpt>
      <trkpt lat="48.59178" lon="1.96615">
        <ele>132.32</ele>
        <time>2018-03-29T07:21:16Z</time>
      </trkpt>
      <trkpt lat="48.59177" lon="1.96614">
        <ele>132.32</ele>
        <time>2018-03-29T07:21:36Z</time>
      </trkpt>
      <trkpt lat="48.59177" lon="1.96615">
        <ele>132.32</ele>
        <time>2018-03-29T07:21:47Z</time>
      </trkpt>
      <trkpt lat="48.59176" lon="1.96618">
        <ele>131.84</ele>
        <time>2018-03-29T07:21:59Z</time>
      </trkpt>
      <trkpt lat="48.59176" lon="1.96618">
        <ele>131.84</ele>
        <time>2018-03-29T07:22:11Z</time>
      </trkpt>
      <trkpt lat="48.59179" lon="1.96613">
        <ele>131.84</ele>
        <time>2018-03-29T07:22:22Z</time>
      </trkpt>
      <trkpt lat="48.59179" lon="1.96613">
        <ele>131.36</ele>
        <time>2018-03-29T07:22:44Z</time>
      </trkpt>
      <trkpt lat="48.59176" lon="1.96612">
        <ele>131.36</ele>
        <time>2018-03-29T07:22:55Z</time>
      </trkpt>
      <trkpt lat="48.59176" lon="1.96611">
        <ele>131.36</ele>
        <time>2018-03-29T07:23:14Z</time>
      </trkpt>
      <trkpt lat="48.59178" lon="1.9661">
        <ele>130.88</ele>
        <time>2018-03-29T07:23:29Z</time>
      </trkpt>
      <trkpt lat="48.59179" lon="1.96609">
        <ele>130.88</ele>
        <time>2018-03-29T07:23:39Z</time>
      </trkpt>
      <trkpt lat="48.59186" lon="1.96589">
        <ele>130.88</ele>
        <time>2018-03-29T07:23:52Z</time>
      </trkpt>
      <trkpt lat="48.59187" lon="1.96587">
        <ele>130.88</ele>
        <time>2018-03-29T07:23:54Z</time>
      </trkpt>
      <trkpt lat="48.59195" lon="1.96578">
        <ele>130.88</ele>
        <time>2018-03-29T07:24:03Z</time>
      </trkpt>
      <trkpt lat="48.59204" lon="1.96569">
        <ele>131.36</ele>
        <time>2018-03-29T07:24:14Z</time>
      </trkpt>
      <trkpt lat="48.59216" lon="1.9655">
        <ele>131.84</ele>
        <time>2018-03-29T07:24:26Z</time>
      </trkpt>
      <trkpt lat="48.59228" lon="1.96532">
        <ele>132.8</ele>
        <time>2018-03-29T07:24:36Z</time>
      </trkpt>
      <trkpt lat="48.59231" lon="1.96529">
        <ele>133.28</ele>
        <time>2018-03-29T07:24:39Z</time>
      </trkpt>
      <trkpt lat="48.59241" lon="1.96521">
        <ele>134.24</ele>
        <time>2018-03-29T07:24:48Z</time>
      </trkpt>
      <trkpt lat="48.59251" lon="1.96516">
        <ele>135.2</ele>
        <time>2018-03-29T07:24:54Z</time>
      </trkpt>
      <trkpt lat="48.59259" lon="1.96509">
        <ele>135.68</ele>
        <time>2018-03-29T07:24:58Z</time>
      </trkpt>
      <trkpt lat="48.59263" lon="1.96502">
        <ele>136.16</ele>
        <time>2018-03-29T07:25:02Z</time>
      </trkpt>
      <trkpt lat="48.59278" lon="1.96486">
        <ele>137.61</ele>
        <time>2018-03-29T07:25:15Z</time>
      </trkpt>
      <trkpt lat="48.59298" lon="1.96482">
        <ele>140.01</ele>
        <time>2018-03-29T07:25:31Z</time>
      </trkpt>
      <trkpt lat="48.59312" lon="1.96486">
        <ele>141.93</ele>
        <time>2018-03-29T07:25:40Z</time>
      </trkpt>
      <trkpt lat="48.59317" lon="1.96486">
        <ele>141.93</ele>
        <time>2018-03-29T07:25:42Z</time>
      </trkpt>
      <trkpt lat="48.59335" lon="1.96499">
        <ele>143.37</ele>
        <time>2018-03-29T07:25:58Z</time>
      </trkpt>
      <trkpt lat="48.59358" lon="1.96518">
        <ele>144.34</ele>
        <time>2018-03-29T07:26:13Z</time>
      </trkpt>
      <trkpt lat="48.59369" lon="1.96527">
        <ele>145.3</ele>
        <time>2018-03-29T07:26:21Z</time>
      </trkpt>
      <trkpt lat="48.59375" lon="1.96537">
        <ele>145.78</ele>
        <time>2018-03-29T07:26:28Z</time>
      </trkpt>
      <trkpt lat="48.59396" lon="1.96556">
        <ele>148.18</ele>
        <time>2018-03-29T07:26:45Z</time>
      </trkpt>
      <trkpt lat="48.59416" lon="1.96576">
        <ele>151.06</ele>
        <time>2018-03-29T07:27:02Z</time>
      </trkpt>
      <trkpt lat="48.59436" lon="1.96595">
        <ele>153.47</ele>
        <time>2018-03-29T07:27:18Z</time>
      </trkpt>
      <trkpt lat="48.5945" lon="1.96603">
        <ele>154.91</ele>
        <time>2018-03-29T07:27:33Z</time>
      </trkpt>
      <trkpt lat="48.5945" lon="1.96599">
        <ele>154.43</ele>
        <time>2018-03-29T07:27:48Z</time>
      </trkpt>
      <trkpt lat="48.59452" lon="1.96593">
        <ele>154.43</ele>
        <time>2018-03-29T07:27:53Z</time>
      </trkpt>
      <trkpt lat="48.59461" lon="1.96571">
        <ele>154.43</ele>
        <time>2018-03-29T07:28:06Z</time>
      </trkpt>
      <trkpt lat="48.59475" lon="1.96548">
        <ele>154.91</ele>
        <time>2018-03-29T07:28:22Z</time>
      </trkpt>
      <trkpt lat="48.59476" lon="1.96544">
        <ele>155.39</ele>
        <time>2018-03-29T07:28:25Z</time>
      </trkpt>
      <trkpt lat="48.59494" lon="1.9652">
        <ele>156.83</ele>
        <time>2018-03-29T07:28:38Z</time>
      </trkpt>
      <trkpt lat="48.595" lon="1.96489">
        <ele>158.75</ele>
        <time>2018-03-29T07:28:51Z</time>
      </trkpt>
      <trkpt lat="48.59516" lon="1.96462">
        <ele>159.24</ele>
        <time>2018-03-29T07:29:09Z</time>
      </trkpt>
      <trkpt lat="48.5952" lon="1.96454">
        <ele>159.72</ele>
        <time>2018-03-29T07:29:13Z</time>
      </trkpt>
      <trkpt lat="48.59536" lon="1.96433">
        <ele>162.12</ele>
        <time>2018-03-29T07:29:30Z</time>
      </trkpt>
      <trkpt lat="48.59552" lon="1.96412">
        <ele>163.56</ele>
        <time>2018-03-29T07:29:45Z</time>
      </trkpt>
      <trkpt lat="48.59559" lon="1.96394">
        <ele>163.56</ele>
        <time>2018-03-29T07:29:56Z</time>
      </trkpt>
      <trkpt lat="48.59569" lon="1.96367">
        <ele>165</ele>
        <time>2018-03-29T07:30:09Z</time>
      </trkpt>
      <trkpt lat="48.59585" lon="1.9633">
        <ele>164.52</ele>
        <time>2018-03-29T07:30:27Z</time>
      </trkpt>
      <trkpt lat="48.59588" lon="1.96305">
        <ele>163.56</ele>
        <time>2018-03-29T07:30:44Z</time>
      </trkpt>
      <trkpt lat="48.59586" lon="1.96292">
        <ele>163.08</ele>
        <time>2018-03-29T07:31:06Z</time>
      </trkpt>
      <trkpt lat="48.59587" lon="1.96291">
        <ele>163.08</ele>
        <time>2018-03-29T07:31:31Z</time>
      </trkpt>
      <trkpt lat="48.59589" lon="1.96291">
        <ele>162.6</ele>
        <time>2018-03-29T07:31:53Z</time>
      </trkpt>
      <trkpt lat="48.59598" lon="1.96281">
        <ele>161.64</ele>
        <time>2018-03-29T07:32:07Z</time>
      </trkpt>
      <trkpt lat="48.59611" lon="1.96253">
        <ele>159.24</ele>
        <time>2018-03-29T07:32:23Z</time>
      </trkpt>
      <trkpt lat="48.59621" lon="1.96228">
        <ele>155.87</ele>
        <time>2018-03-29T07:32:38Z</time>
      </trkpt>
      <trkpt lat="48.59627" lon="1.96214">
        <ele>152.51</ele>
        <time>2018-03-29T07:32:47Z</time>
      </trkpt>
      <trkpt lat="48.59633" lon="1.96201">
        <ele>151.06</ele>
        <time>2018-03-29T07:32:54Z</time>
      </trkpt>
      <trkpt lat="48.59644" lon="1.96175">
        <ele>148.18</ele>
        <time>2018-03-29T07:33:09Z</time>
      </trkpt>
      <trkpt lat="48.59659" lon="1.96151">
        <ele>144.82</ele>
        <time>2018-03-29T07:33:24Z</time>
      </trkpt>
      <trkpt lat="48.59675" lon="1.96126">
        <ele>142.89</ele>
        <time>2018-03-29T07:33:41Z</time>
      </trkpt>
      <trkpt lat="48.59691" lon="1.96094">
        <ele>140.49</ele>
        <time>2018-03-29T07:33:57Z</time>
      </trkpt>
      <trkpt lat="48.59704" lon="1.96065">
        <ele>137.13</ele>
        <time>2018-03-29T07:34:13Z</time>
      </trkpt>
      <trkpt lat="48.59719" lon="1.96034">
        <ele>135.2</ele>
        <time>2018-03-29T07:34:29Z</time>
      </trkpt>
      <trkpt lat="48.5973" lon="1.96008">
        <ele>134.24</ele>
        <time>2018-03-29T07:34:42Z</time>
      </trkpt>
      <trkpt lat="48.59744" lon="1.95988">
        <ele>133.76</ele>
        <time>2018-03-29T07:34:55Z</time>
      </trkpt>
      <trkpt lat="48.59748" lon="1.95983">
        <ele>133.28</ele>
        <time>2018-03-29T07:34:58Z</time>
      </trkpt>
      <trkpt lat="48.59752" lon="1.95952">
        <ele>132.32</ele>
        <time>2018-03-29T07:35:09Z</time>
      </trkpt>
      <trkpt lat="48.59768" lon="1.95915">
        <ele>131.36</ele>
        <time>2018-03-29T07:35:30Z</time>
      </trkpt>
      <trkpt lat="48.5977" lon="1.9591">
        <ele>130.88</ele>
        <time>2018-03-29T07:35:33Z</time>
      </trkpt>
      <trkpt lat="48.59785" lon="1.95881">
        <ele>129.92</ele>
        <time>2018-03-29T07:35:49Z</time>
      </trkpt>
      <trkpt lat="48.59794" lon="1.95853">
        <ele>129.43</ele>
        <time>2018-03-29T07:36:03Z</time>
      </trkpt>
      <trkpt lat="48.59811" lon="1.95823">
        <ele>128.95</ele>
        <time>2018-03-29T07:36:18Z</time>
      </trkpt>
      <trkpt lat="48.59826" lon="1.95798">
        <ele>127.99</ele>
        <time>2018-03-29T07:36:35Z</time>
      </trkpt>
      <trkpt lat="48.59835" lon="1.9577">
        <ele>127.51</ele>
        <time>2018-03-29T07:36:48Z</time>
      </trkpt>
      <trkpt lat="48.59842" lon="1.95758">
        <ele>127.03</ele>
        <time>2018-03-29T07:36:54Z</time>
      </trkpt>
      <trkpt lat="48.59858" lon="1.95733">
        <ele>126.55</ele>
        <time>2018-03-29T07:37:07Z</time>
      </trkpt>
      <trkpt lat="48.59859" lon="1.95723">
        <ele>126.55</ele>
        <time>2018-03-29T07:37:11Z</time>
      </trkpt>
      <trkpt lat="48.59875" lon="1.95698">
        <ele>126.07</ele>
        <time>2018-03-29T07:37:27Z</time>
      </trkpt>
      <trkpt lat="48.59879" lon="1.95689">
        <ele>125.59</ele>
        <time>2018-03-29T07:37:33Z</time>
      </trkpt>
      <trkpt lat="48.59885" lon="1.95686">
        <ele>125.59</ele>
        <time>2018-03-29T07:37:37Z</time>
      </trkpt>
      <trkpt lat="48.59909" lon="1.95687">
        <ele>126.55</ele>
        <time>2018-03-29T07:37:54Z</time>
      </trkpt>
      <trkpt lat="48.5992" lon="1.95685">
        <ele>127.03</ele>
        <time>2018-03-29T07:38:02Z</time>
      </trkpt>
      <trkpt lat="48.59945" lon="1.95682">
        <ele>128.47</ele>
        <time>2018-03-29T07:38:20Z</time>
      </trkpt>
      <trkpt lat="48.59957" lon="1.9568">
        <ele>127.03</ele>
        <time>2018-03-29T07:38:39Z</time>
      </trkpt>
      <trkpt lat="48.59975" lon="1.95687">
        <ele>125.11</ele>
        <time>2018-03-29T07:38:54Z</time>
      </trkpt>
      <trkpt lat="48.60006" lon="1.95708">
        <ele>123.67</ele>
        <time>2018-03-29T07:39:08Z</time>
      </trkpt>
      <trkpt lat="48.60019" lon="1.95724">
        <ele>122.71</ele>
        <time>2018-03-29T07:39:17Z</time>
      </trkpt>
      <trkpt lat="48.60037" lon="1.95753">
        <ele>121.74</ele>
        <time>2018-03-29T07:39:31Z</time>
      </trkpt>
      <trkpt lat="48.60044" lon="1.95776">
        <ele>121.26</ele>
        <time>2018-03-29T07:39:42Z</time>
      </trkpt>
      <trkpt lat="48.60048" lon="1.95791">
        <ele>120.78</ele>
        <time>2018-03-29T07:39:49Z</time>
      </trkpt>
      <trkpt lat="48.60051" lon="1.95794">
        <ele>120.3</ele>
        <time>2018-03-29T07:39:51Z</time>
      </trkpt>
      <trkpt lat="48.60064" lon="1.95818">
        <ele>119.82</ele>
        <time>2018-03-29T07:40:04Z</time>
      </trkpt>
      <trkpt lat="48.6007" lon="1.95842">
        <ele>119.34</ele>
        <time>2018-03-29T07:40:16Z</time>
      </trkpt>
      <trkpt lat="48.60094" lon="1.95861">
        <ele>118.38</ele>
        <time>2018-03-29T07:40:32Z</time>
      </trkpt>
      <trkpt lat="48.60117" lon="1.95876">
        <ele>118.38</ele>
        <time>2018-03-29T07:40:46Z</time>
      </trkpt>
      <trkpt lat="48.60131" lon="1.95903">
        <ele>118.86</ele>
        <time>2018-03-29T07:41:02Z</time>
      </trkpt>
      <trkpt lat="48.60132" lon="1.95911">
        <ele>118.86</ele>
        <time>2018-03-29T07:41:05Z</time>
      </trkpt>
      <trkpt lat="48.60136" lon="1.95928">
        <ele>119.34</ele>
        <time>2018-03-29T07:41:17Z</time>
      </trkpt>
      <trkpt lat="48.60138" lon="1.95933">
        <ele>120.3</ele>
        <time>2018-03-29T07:41:20Z</time>
      </trkpt>
      <trkpt lat="48.60141" lon="1.9595">
        <ele>119.82</ele>
        <time>2018-03-29T07:41:29Z</time>
      </trkpt>
      <trkpt lat="48.60145" lon="1.95961">
        <ele>120.3</ele>
        <time>2018-03-29T07:41:34Z</time>
      </trkpt>
      <trkpt lat="48.6015" lon="1.95981">
        <ele>120.78</ele>
        <time>2018-03-29T07:41:44Z</time>
      </trkpt>
      <trkpt lat="48.60155" lon="1.96008">
        <ele>121.26</ele>
        <time>2018-03-29T07:41:57Z</time>
      </trkpt>
      <trkpt lat="48.60157" lon="1.96039">
        <ele>122.22</ele>
        <time>2018-03-29T07:42:10Z</time>
      </trkpt>
      <trkpt lat="48.60157" lon="1.96044">
        <ele>122.71</ele>
        <time>2018-03-29T07:42:12Z</time>
      </trkpt>
      <trkpt lat="48.60151" lon="1.96049">
        <ele>123.19</ele>
        <time>2018-03-29T07:42:16Z</time>
      </trkpt>
      <trkpt lat="48.6014" lon="1.96075">
        <ele>126.55</ele>
        <time>2018-03-29T07:42:29Z</time>
      </trkpt>
      <trkpt lat="48.60133" lon="1.96098">
        <ele>129.92</ele>
        <time>2018-03-29T07:42:39Z</time>
      </trkpt>
      <trkpt lat="48.60131" lon="1.96104">
        <ele>131.36</ele>
        <time>2018-03-29T07:42:42Z</time>
      </trkpt>
      <trkpt lat="48.60122" lon="1.96115">
        <ele>134.24</ele>
        <time>2018-03-29T07:42:53Z</time>
      </trkpt>
      <trkpt lat="48.60111" lon="1.96131">
        <ele>136.64</ele>
        <time>2018-03-29T07:43:03Z</time>
      </trkpt>
      <trkpt lat="48.60108" lon="1.96135">
        <ele>137.13</ele>
        <time>2018-03-29T07:43:06Z</time>
      </trkpt>
      <trkpt lat="48.60101" lon="1.96154">
        <ele>140.49</ele>
        <time>2018-03-29T07:43:17Z</time>
      </trkpt>
      <trkpt lat="48.60095" lon="1.96168">
        <ele>143.85</ele>
        <time>2018-03-29T07:43:27Z</time>
      </trkpt>
      <trkpt lat="48.60095" lon="1.96169">
        <ele>143.85</ele>
        <time>2018-03-29T07:43:28Z</time>
      </trkpt>
      <trkpt lat="48.60093" lon="1.96173">
        <ele>144.82</ele>
        <time>2018-03-29T07:43:32Z</time>
      </trkpt>
      <trkpt lat="48.60092" lon="1.96177">
        <ele>146.26</ele>
        <time>2018-03-29T07:43:34Z</time>
      </trkpt>
      <trkpt lat="48.60083" lon="1.96195">
        <ele>149.62</ele>
        <time>2018-03-29T07:43:45Z</time>
      </trkpt>
      <trkpt lat="48.60081" lon="1.96198">
        <ele>150.1</ele>
        <time>2018-03-29T07:43:46Z</time>
      </trkpt>
      <trkpt lat="48.60073" lon="1.96215">
        <ele>152.51</ele>
        <time>2018-03-29T07:43:57Z</time>
      </trkpt>
      <trkpt lat="48.60064" lon="1.96235">
        <ele>153.95</ele>
        <time>2018-03-29T07:44:09Z</time>
      </trkpt>
      <trkpt lat="48.60058" lon="1.96249">
        <ele>154.43</ele>
        <time>2018-03-29T07:44:17Z</time>
      </trkpt>
      <trkpt lat="48.60049" lon="1.96267">
        <ele>153.47</ele>
        <time>2018-03-29T07:44:31Z</time>
      </trkpt>
      <trkpt lat="48.60042" lon="1.96281">
        <ele>152.51</ele>
        <time>2018-03-29T07:44:41Z</time>
      </trkpt>
      <trkpt lat="48.60033" lon="1.96299">
        <ele>152.51</ele>
        <time>2018-03-29T07:44:55Z</time>
      </trkpt>
      <trkpt lat="48.60026" lon="1.96308">
        <ele>153.47</ele>
        <time>2018-03-29T07:45:09Z</time>
      </trkpt>
      <trkpt lat="48.60023" lon="1.96311">
        <ele>153.47</ele>
        <time>2018-03-29T07:45:26Z</time>
      </trkpt>
      <trkpt lat="48.60026" lon="1.96314">
        <ele>153.47</ele>
        <time>2018-03-29T07:45:40Z</time>
      </trkpt>
      <trkpt lat="48.60026" lon="1.96314">
        <ele>153.47</ele>
        <time>2018-03-29T07:45:57Z</time>
      </trkpt>
      <trkpt lat="48.60023" lon="1.96315">
        <ele>152.99</ele>
        <time>2018-03-29T07:46:17Z</time>
      </trkpt>
      <trkpt lat="48.60022" lon="1.96317">
        <ele>153.47</ele>
        <time>2018-03-29T07:46:30Z</time>
      </trkpt>
      <trkpt lat="48.60019" lon="1.96317">
        <ele>153.47</ele>
        <time>2018-03-29T07:46:41Z</time>
      </trkpt>
      <trkpt lat="48.60019" lon="1.96318">
        <ele>152.99</ele>
        <time>2018-03-29T07:47:01Z</time>
      </trkpt>
      <trkpt lat="48.60017" lon="1.96316">
        <ele>152.51</ele>
        <time>2018-03-29T07:47:23Z</time>
      </trkpt>
      <trkpt lat="48.60015" lon="1.96313">
        <ele>153.47</ele>
        <time>2018-03-29T07:47:52Z</time>
      </trkpt>
      <trkpt lat="48.6002" lon="1.96305">
        <ele>152.99</ele>
        <time>2018-03-29T07:48:10Z</time>
      </trkpt>
      <trkpt lat="48.60022" lon="1.96307">
        <ele>152.99</ele>
        <time>2018-03-29T07:48:33Z</time>
      </trkpt>
      <trkpt lat="48.60022" lon="1.96308">
        <ele>152.99</ele>
        <time>2018-03-29T07:48:51Z</time>
      </trkpt>
      <trkpt lat="48.6002" lon="1.9631">
        <ele>152.99</ele>
        <time>2018-03-29T07:49:16Z</time>
      </trkpt>
      <trkpt lat="48.60017" lon="1.96328">
        <ele>152.99</ele>
        <time>2018-03-29T07:49:33Z</time>
      </trkpt>
      <trkpt lat="48.60013" lon="1.9634">
        <ele>152.51</ele>
        <time>2018-03-29T07:49:39Z</time>
      </trkpt>
      <trkpt lat="48.6" lon="1.96359">
        <ele>151.06</ele>
        <time>2018-03-29T07:49:50Z</time>
      </trkpt>
      <trkpt lat="48.59998" lon="1.96364">
        <ele>150.58</ele>
        <time>2018-03-29T07:49:53Z</time>
      </trkpt>
      <trkpt lat="48.59995" lon="1.96368">
        <ele>150.1</ele>
        <time>2018-03-29T07:49:55Z</time>
      </trkpt>
      <trkpt lat="48.59991" lon="1.96375">
        <ele>148.66</ele>
        <time>2018-03-29T07:49:59Z</time>
      </trkpt>
      <trkpt lat="48.59984" lon="1.96387">
        <ele>147.7</ele>
        <time>2018-03-29T07:50:08Z</time>
      </trkpt>
      <trkpt lat="48.59973" lon="1.96414">
        <ele>145.3</ele>
        <time>2018-03-29T07:50:19Z</time>
      </trkpt>
      <trkpt lat="48.5997" lon="1.96427">
        <ele>144.34</ele>
        <time>2018-03-29T07:50:24Z</time>
      </trkpt>
      <trkpt lat="48.59963" lon="1.9644">
        <ele>143.37</ele>
        <time>2018-03-29T07:50:30Z</time>
      </trkpt>
      <trkpt lat="48.59956" lon="1.96467">
        <ele>143.37</ele>
        <time>2018-03-29T07:50:43Z</time>
      </trkpt>
      <trkpt lat="48.59945" lon="1.96485">
        <ele>144.82</ele>
        <time>2018-03-29T07:50:54Z</time>
      </trkpt>
      <trkpt lat="48.59932" lon="1.96506">
        <ele>145.3</ele>
        <time>2018-03-29T07:51:06Z</time>
      </trkpt>
      <trkpt lat="48.5993" lon="1.9651">
        <ele>146.26</ele>
        <time>2018-03-29T07:51:08Z</time>
      </trkpt>
      <trkpt lat="48.59917" lon="1.96539">
        <ele>146.74</ele>
        <time>2018-03-29T07:51:22Z</time>
      </trkpt>
      <trkpt lat="48.59913" lon="1.96544">
        <ele>146.74</ele>
        <time>2018-03-29T07:51:25Z</time>
      </trkpt>
      <trkpt lat="48.59911" lon="1.96551">
        <ele>148.18</ele>
        <time>2018-03-29T07:51:29Z</time>
      </trkpt>
      <trkpt lat="48.59906" lon="1.9656">
        <ele>149.14</ele>
        <time>2018-03-29T07:51:36Z</time>
      </trkpt>
      <trkpt lat="48.59898" lon="1.96572">
        <ele>152.51</ele>
        <time>2018-03-29T07:51:48Z</time>
      </trkpt>
      <trkpt lat="48.59896" lon="1.96577">
        <ele>152.99</ele>
        <time>2018-03-29T07:51:51Z</time>
      </trkpt>
      <trkpt lat="48.59895" lon="1.96581">
        <ele>154.43</ele>
        <time>2018-03-29T07:51:53Z</time>
      </trkpt>
      <trkpt lat="48.59893" lon="1.96592">
        <ele>154.43</ele>
        <time>2018-03-29T07:51:58Z</time>
      </trkpt>
      <trkpt lat="48.5989" lon="1.96593">
        <ele>153.95</ele>
        <time>2018-03-29T07:52:00Z</time>
      </trkpt>
      <trkpt lat="48.59888" lon="1.96599">
        <ele>155.87</ele>
        <time>2018-03-29T07:52:03Z</time>
      </trkpt>
      <trkpt lat="48.59879" lon="1.96618">
        <ele>155.39</ele>
        <time>2018-03-29T07:52:11Z</time>
      </trkpt>
      <trkpt lat="48.59872" lon="1.96625">
        <ele>155.87</ele>
        <time>2018-03-29T07:52:17Z</time>
      </trkpt>
      <trkpt lat="48.59872" lon="1.96632">
        <ele>155.87</ele>
        <time>2018-03-29T07:52:21Z</time>
      </trkpt>
      <trkpt lat="48.5987" lon="1.96636">
        <ele>155.87</ele>
        <time>2018-03-29T07:52:23Z</time>
      </trkpt>
      <trkpt lat="48.59863" lon="1.9665">
        <ele>156.35</ele>
        <time>2018-03-29T07:52:28Z</time>
      </trkpt>
      <trkpt lat="48.59854" lon="1.96673">
        <ele>155.87</ele>
        <time>2018-03-29T07:52:38Z</time>
      </trkpt>
      <trkpt lat="48.59853" lon="1.96679">
        <ele>156.35</ele>
        <time>2018-03-29T07:52:40Z</time>
      </trkpt>
      <trkpt lat="48.59852" lon="1.96684">
        <ele>156.83</ele>
        <time>2018-03-29T07:52:42Z</time>
      </trkpt>
      <trkpt lat="48.59845" lon="1.96692">
        <ele>156.35</ele>
        <time>2018-03-29T07:52:47Z</time>
      </trkpt>
      <trkpt lat="48.5984" lon="1.96701">
        <ele>156.35</ele>
        <time>2018-03-29T07:52:51Z</time>
      </trkpt>
      <trkpt lat="48.59836" lon="1.96711">
        <ele>156.35</ele>
        <time>2018-03-29T07:52:56Z</time>
      </trkpt>
      <trkpt lat="48.59834" lon="1.96713">
        <ele>156.35</ele>
        <time>2018-03-29T07:52:58Z</time>
      </trkpt>
      <trkpt lat="48.59821" lon="1.96731">
        <ele>155.87</ele>
        <time>2018-03-29T07:53:09Z</time>
      </trkpt>
      <trkpt lat="48.59818" lon="1.96738">
        <ele>155.87</ele>
        <time>2018-03-29T07:53:12Z</time>
      </trkpt>
      <trkpt lat="48.59815" lon="1.96742">
        <ele>155.39</ele>
        <time>2018-03-29T07:53:15Z</time>
      </trkpt>
      <trkpt lat="48.59806" lon="1.96755">
        <ele>154.91</ele>
        <time>2018-03-29T07:53:26Z</time>
      </trkpt>
      <trkpt lat="48.59797" lon="1.96777">
        <ele>152.99</ele>
        <time>2018-03-29T07:53:38Z</time>
      </trkpt>
      <trkpt lat="48.59784" lon="1.96808">
        <ele>149.62</ele>
        <time>2018-03-29T07:53:52Z</time>
      </trkpt>
      <trkpt lat="48.59779" lon="1.96816">
        <ele>149.14</ele>
        <time>2018-03-29T07:53:56Z</time>
      </trkpt>
      <trkpt lat="48.59764" lon="1.96847">
        <ele>145.78</ele>
        <time>2018-03-29T07:54:10Z</time>
      </trkpt>
      <trkpt lat="48.59758" lon="1.96857">
        <ele>144.82</ele>
        <time>2018-03-29T07:54:16Z</time>
      </trkpt>
      <trkpt lat="48.59754" lon="1.96869">
        <ele>143.37</ele>
        <time>2018-03-29T07:54:22Z</time>
      </trkpt>
      <trkpt lat="48.59753" lon="1.96875">
        <ele>143.85</ele>
        <time>2018-03-29T07:54:24Z</time>
      </trkpt>
      <trkpt lat="48.59749" lon="1.96882">
        <ele>142.89</ele>
        <time>2018-03-29T07:54:29Z</time>
      </trkpt>
      <trkpt lat="48.5974" lon="1.96898">
        <ele>141.45</ele>
        <time>2018-03-29T07:54:40Z</time>
      </trkpt>
      <trkpt lat="48.59746" lon="1.96915">
        <ele>141.45</ele>
        <time>2018-03-29T07:54:52Z</time>
      </trkpt>
      <trkpt lat="48.59757" lon="1.96925">
        <ele>141.45</ele>
        <time>2018-03-29T07:55:01Z</time>
      </trkpt>
      <trkpt lat="48.59765" lon="1.96933">
        <ele>140.97</ele>
        <time>2018-03-29T07:55:07Z</time>
      </trkpt>
      <trkpt lat="48.59784" lon="1.9695">
        <ele>141.45</ele>
        <time>2018-03-29T07:55:21Z</time>
      </trkpt>
      <trkpt lat="48.59797" lon="1.96963">
        <ele>140.49</ele>
        <time>2018-03-29T07:55:32Z</time>
      </trkpt>
      <trkpt lat="48.59815" lon="1.96981">
        <ele>139.05</ele>
        <time>2018-03-29T07:55:45Z</time>
      </trkpt>
      <trkpt lat="48.59815" lon="1.96983">
        <ele>139.05</ele>
        <time>2018-03-29T07:55:47Z</time>
      </trkpt>
      <trkpt lat="48.59819" lon="1.96988">
        <ele>138.57</ele>
        <time>2018-03-29T07:55:51Z</time>
      </trkpt>
      <trkpt lat="48.59829" lon="1.96997">
        <ele>139.05</ele>
        <time>2018-03-29T07:56:01Z</time>
      </trkpt>
      <trkpt lat="48.59835" lon="1.97003">
        <ele>139.05</ele>
        <time>2018-03-29T07:56:05Z</time>
      </trkpt>
      <trkpt lat="48.59867" lon="1.97022">
        <ele>139.53</ele>
        <time>2018-03-29T07:56:19Z</time>
      </trkpt>
      <trkpt lat="48.59879" lon="1.97034">
        <ele>140.01</ele>
        <time>2018-03-29T07:56:27Z</time>
      </trkpt>
      <trkpt lat="48.59888" lon="1.97052">
        <ele>139.53</ele>
        <time>2018-03-29T07:56:38Z</time>
      </trkpt>
      <trkpt lat="48.59892" lon="1.97057">
        <ele>140.01</ele>
        <time>2018-03-29T07:56:44Z</time>
      </trkpt>
      <trkpt lat="48.59897" lon="1.97066">
        <ele>139.53</ele>
        <time>2018-03-29T07:56:51Z</time>
      </trkpt>
      <trkpt lat="48.59903" lon="1.97069">
        <ele>139.53</ele>
        <time>2018-03-29T07:56:55Z</time>
      </trkpt>
      <trkpt lat="48.59916" lon="1.97085">
        <ele>139.53</ele>
        <time>2018-03-29T07:57:07Z</time>
      </trkpt>
      <trkpt lat="48.59925" lon="1.97098">
        <ele>139.05</ele>
        <time>2018-03-29T07:57:17Z</time>
      </trkpt>
      <trkpt lat="48.59927" lon="1.971">
        <ele>138.57</ele>
        <time>2018-03-29T07:57:18Z</time>
      </trkpt>
      <trkpt lat="48.5993" lon="1.97104">
        <ele>139.53</ele>
        <time>2018-03-29T07:57:21Z</time>
      </trkpt>
      <trkpt lat="48.59932" lon="1.97106">
        <ele>138.57</ele>
        <time>2018-03-29T07:57:22Z</time>
      </trkpt>
      <trkpt lat="48.59954" lon="1.97125">
        <ele>138.57</ele>
        <time>2018-03-29T07:57:35Z</time>
      </trkpt>
      <trkpt lat="48.59973" lon="1.97137">
        <ele>138.57</ele>
        <time>2018-03-29T07:57:46Z</time>
      </trkpt>
      <trkpt lat="48.59973" lon="1.97141">
        <ele>138.09</ele>
        <time>2018-03-29T07:57:54Z</time>
      </trkpt>
      <trkpt lat="48.59974" lon="1.97142">
        <ele>138.09</ele>
        <time>2018-03-29T07:57:55Z</time>
      </trkpt>
      <trkpt lat="48.59975" lon="1.97144">
        <ele>138.09</ele>
        <time>2018-03-29T07:57:56Z</time>
      </trkpt>
      <trkpt lat="48.59982" lon="1.97154">
        <ele>137.61</ele>
        <time>2018-03-29T07:58:05Z</time>
      </trkpt>
      <trkpt lat="48.59986" lon="1.97156">
        <ele>137.61</ele>
        <time>2018-03-29T07:58:07Z</time>
      </trkpt>
      <trkpt lat="48.59989" lon="1.97157">
        <ele>137.61</ele>
        <time>2018-03-29T07:58:08Z</time>
      </trkpt>
      <trkpt lat="48.60011" lon="1.97174">
        <ele>137.13</ele>
        <time>2018-03-29T07:58:21Z</time>
      </trkpt>
      <trkpt lat="48.60015" lon="1.9718">
        <ele>137.61</ele>
        <time>2018-03-29T07:58:29Z</time>
      </trkpt>
      <trkpt lat="48.60018" lon="1.97184">
        <ele>137.13</ele>
        <time>2018-03-29T07:58:32Z</time>
      </trkpt>
      <trkpt lat="48.60036" lon="1.97196">
        <ele>138.09</ele>
        <time>2018-03-29T07:58:41Z</time>
      </trkpt>
      <trkpt lat="48.60042" lon="1.97209">
        <ele>139.05</ele>
        <time>2018-03-29T07:58:50Z</time>
      </trkpt>
      <trkpt lat="48.60044" lon="1.97212">
        <ele>138.57</ele>
        <time>2018-03-29T07:58:53Z</time>
      </trkpt>
      <trkpt lat="48.60045" lon="1.97213">
        <ele>138.57</ele>
        <time>2018-03-29T07:58:54Z</time>
      </trkpt>
      <trkpt lat="48.60048" lon="1.97216">
        <ele>139.05</ele>
        <time>2018-03-29T07:58:56Z</time>
      </trkpt>
      <trkpt lat="48.60056" lon="1.97222">
        <ele>140.97</ele>
        <time>2018-03-29T07:59:01Z</time>
      </trkpt>
      <trkpt lat="48.60061" lon="1.97227">
        <ele>141.93</ele>
        <time>2018-03-29T07:59:07Z</time>
      </trkpt>
      <trkpt lat="48.60063" lon="1.97229">
        <ele>141.93</ele>
        <time>2018-03-29T07:59:09Z</time>
      </trkpt>
      <trkpt lat="48.60078" lon="1.97241">
        <ele>143.37</ele>
        <time>2018-03-29T07:59:18Z</time>
      </trkpt>
      <trkpt lat="48.60081" lon="1.97251">
        <ele>142.41</ele>
        <time>2018-03-29T07:59:26Z</time>
      </trkpt>
      <trkpt lat="48.60084" lon="1.97253">
        <ele>142.41</ele>
        <time>2018-03-29T07:59:28Z</time>
      </trkpt>
      <trkpt lat="48.60091" lon="1.97258">
        <ele>143.85</ele>
        <time>2018-03-29T07:59:32Z</time>
      </trkpt>
      <trkpt lat="48.60109" lon="1.97271">
        <ele>142.89</ele>
        <time>2018-03-29T07:59:41Z</time>
      </trkpt>
      <trkpt lat="48.60113" lon="1.97279">
        <ele>143.85</ele>
        <time>2018-03-29T07:59:46Z</time>
      </trkpt>
      <trkpt lat="48.60121" lon="1.97293">
        <ele>143.37</ele>
        <time>2018-03-29T07:59:57Z</time>
      </trkpt>
      <trkpt lat="48.60122" lon="1.97295">
        <ele>143.85</ele>
        <time>2018-03-29T07:59:59Z</time>
      </trkpt>
      <trkpt lat="48.60137" lon="1.97306">
        <ele>143.85</ele>
        <time>2018-03-29T08:00:11Z</time>
      </trkpt>
      <trkpt lat="48.60149" lon="1.97318">
        <ele>143.85</ele>
        <time>2018-03-29T08:00:25Z</time>
      </trkpt>
      <trkpt lat="48.60148" lon="1.97321">
        <ele>143.85</ele>
        <time>2018-03-29T08:00:42Z</time>
      </trkpt>
      <trkpt lat="48.60154" lon="1.97327">
        <ele>144.34</ele>
        <time>2018-03-29T08:00:55Z</time>
      </trkpt>
      <trkpt lat="48.60152" lon="1.97329">
        <ele>143.85</ele>
        <time>2018-03-29T08:01:11Z</time>
      </trkpt>
      <trkpt lat="48.60151" lon="1.97329">
        <ele>143.85</ele>
        <time>2018-03-29T08:01:35Z</time>
      </trkpt>
      <trkpt lat="48.6015" lon="1.97329">
        <ele>144.34</ele>
        <time>2018-03-29T08:01:59Z</time>
      </trkpt>
      <trkpt lat="48.6015" lon="1.97329">
        <ele>143.85</ele>
        <time>2018-03-29T08:02:18Z</time>
      </trkpt>
      <trkpt lat="48.60149" lon="1.97329">
        <ele>143.85</ele>
        <time>2018-03-29T08:02:40Z</time>
      </trkpt>
      <trkpt lat="48.60149" lon="1.97329">
        <ele>143.85</ele>
        <time>2018-03-29T08:03:00Z</time>
      </trkpt>
      <trkpt lat="48.60149" lon="1.9733">
        <ele>143.85</ele>
        <time>2018-03-29T08:03:30Z</time>
      </trkpt>
      <trkpt lat="48.6015" lon="1.97328">
        <ele>143.85</ele>
        <time>2018-03-29T08:03:38Z</time>
      </trkpt>
      <trkpt lat="48.60155" lon="1.97318">
        <ele>144.34</ele>
        <time>2018-03-29T08:03:42Z</time>
      </trkpt>
      <trkpt lat="48.60167" lon="1.97283">
        <ele>143.85</ele>
        <time>2018-03-29T08:03:56Z</time>
      </trkpt>
      <trkpt lat="48.60168" lon="1.97281">
        <ele>143.85</ele>
        <time>2018-03-29T08:03:57Z</time>
      </trkpt>
      <trkpt lat="48.60185" lon="1.97251">
        <ele>142.41</ele>
        <time>2018-03-29T08:04:12Z</time>
      </trkpt>
      <trkpt lat="48.60192" lon="1.97234">
        <ele>140.01</ele>
        <time>2018-03-29T08:04:25Z</time>
      </trkpt>
      <trkpt lat="48.602" lon="1.97223">
        <ele>137.13</ele>
        <time>2018-03-29T08:04:35Z</time>
      </trkpt>
      <trkpt lat="48.60201" lon="1.97219">
        <ele>136.16</ele>
        <time>2018-03-29T08:04:37Z</time>
      </trkpt>
      <trkpt lat="48.60207" lon="1.97201">
        <ele>133.76</ele>
        <time>2018-03-29T08:04:47Z</time>
      </trkpt>
      <trkpt lat="48.60215" lon="1.9718">
        <ele>129.92</ele>
        <time>2018-03-29T08:04:59Z</time>
      </trkpt>
      <trkpt lat="48.60227" lon="1.97159">
        <ele>127.03</ele>
        <time>2018-03-29T08:05:15Z</time>
      </trkpt>
      <trkpt lat="48.60228" lon="1.97158">
        <ele>126.55</ele>
        <time>2018-03-29T08:05:16Z</time>
      </trkpt>
      <trkpt lat="48.60242" lon="1.97129">
        <ele>124.63</ele>
        <time>2018-03-29T08:05:30Z</time>
      </trkpt>
      <trkpt lat="48.60252" lon="1.97105">
        <ele>123.19</ele>
        <time>2018-03-29T08:05:44Z</time>
      </trkpt>
      <trkpt lat="48.60252" lon="1.97103">
        <ele>122.71</ele>
        <time>2018-03-29T08:05:45Z</time>
      </trkpt>
      <trkpt lat="48.60253" lon="1.97097">
        <ele>122.71</ele>
        <time>2018-03-29T08:05:48Z</time>
      </trkpt>
      <trkpt lat="48.60264" lon="1.97079">
        <ele>121.74</ele>
        <time>2018-03-29T08:05:58Z</time>
      </trkpt>
      <trkpt lat="48.60273" lon="1.97064">
        <ele>121.26</ele>
        <time>2018-03-29T08:06:06Z</time>
      </trkpt>
      <trkpt lat="48.60278" lon="1.97051">
        <ele>120.3</ele>
        <time>2018-03-29T08:06:14Z</time>
      </trkpt>
      <trkpt lat="48.60288" lon="1.97022">
        <ele>119.82</ele>
        <time>2018-03-29T08:06:29Z</time>
      </trkpt>
      <trkpt lat="48.60288" lon="1.97017">
        <ele>119.34</ele>
        <time>2018-03-29T08:06:31Z</time>
      </trkpt>
      <trkpt lat="48.60288" lon="1.97012">
        <ele>119.82</ele>
        <time>2018-03-29T08:06:33Z</time>
      </trkpt>
      <trkpt lat="48.60292" lon="1.97006">
        <ele>119.82</ele>
        <time>2018-03-29T08:06:36Z</time>
      </trkpt>
      <trkpt lat="48.60301" lon="1.97001">
        <ele>120.3</ele>
        <time>2018-03-29T08:06:44Z</time>
      </trkpt>
      <trkpt lat="48.60301" lon="1.96999">
        <ele>120.3</ele>
        <time>2018-03-29T08:06:45Z</time>
      </trkpt>
      <trkpt lat="48.60303" lon="1.96996">
        <ele>119.82</ele>
        <time>2018-03-29T08:06:47Z</time>
      </trkpt>
      <trkpt lat="48.60311" lon="1.96976">
        <ele>120.78</ele>
        <time>2018-03-29T08:06:57Z</time>
      </trkpt>
      <trkpt lat="48.60319" lon="1.96955">
        <ele>123.19</ele>
        <time>2018-03-29T08:07:12Z</time>
      </trkpt>
      <trkpt lat="48.60332" lon="1.96925">
        <ele>124.63</ele>
        <time>2018-03-29T08:07:28Z</time>
      </trkpt>
      <trkpt lat="48.60335" lon="1.96919">
        <ele>127.03</ele>
        <time>2018-03-29T08:07:31Z</time>
      </trkpt>
      <trkpt lat="48.60342" lon="1.96899">
        <ele>128.95</ele>
        <time>2018-03-29T08:07:42Z</time>
      </trkpt>
      <trkpt lat="48.60345" lon="1.96895">
        <ele>128.95</ele>
        <time>2018-03-29T08:07:45Z</time>
      </trkpt>
      <trkpt lat="48.60349" lon="1.9689">
        <ele>129.92</ele>
        <time>2018-03-29T08:07:48Z</time>
      </trkpt>
      <trkpt lat="48.60351" lon="1.96883">
        <ele>131.84</ele>
        <time>2018-03-29T08:07:52Z</time>
      </trkpt>
      <trkpt lat="48.60357" lon="1.9687">
        <ele>134.24</ele>
        <time>2018-03-29T08:08:02Z</time>
      </trkpt>
      <trkpt lat="48.60366" lon="1.9685">
        <ele>138.09</ele>
        <time>2018-03-29T08:08:13Z</time>
      </trkpt>
      <trkpt lat="48.60368" lon="1.96841">
        <ele>139.05</ele>
        <time>2018-03-29T08:08:20Z</time>
      </trkpt>
      <trkpt lat="48.60374" lon="1.96831">
        <ele>140.01</ele>
        <time>2018-03-29T08:08:26Z</time>
      </trkpt>
      <trkpt lat="48.60386" lon="1.96808">
        <ele>140.49</ele>
        <time>2018-03-29T08:08:41Z</time>
      </trkpt>
      <trkpt lat="48.60387" lon="1.96805">
        <ele>140.49</ele>
        <time>2018-03-29T08:08:43Z</time>
      </trkpt>
      <trkpt lat="48.60389" lon="1.96802">
        <ele>141.45</ele>
        <time>2018-03-29T08:08:45Z</time>
      </trkpt>
      <trkpt lat="48.60393" lon="1.96788">
        <ele>140.97</ele>
        <time>2018-03-29T08:08:54Z</time>
      </trkpt>
      <trkpt lat="48.60398" lon="1.96772">
        <ele>141.45</ele>
        <time>2018-03-29T08:09:04Z</time>
      </trkpt>
      <trkpt lat="48.60401" lon="1.96768">
        <ele>140.97</ele>
        <time>2018-03-29T08:09:06Z</time>
      </trkpt>
      <trkpt lat="48.60412" lon="1.96743">
        <ele>140.01</ele>
        <time>2018-03-29T08:09:22Z</time>
      </trkpt>
      <trkpt lat="48.60428" lon="1.96717">
        <ele>139.53</ele>
        <time>2018-03-29T08:09:35Z</time>
      </trkpt>
      <trkpt lat="48.60438" lon="1.96697">
        <ele>138.57</ele>
        <time>2018-03-29T08:09:48Z</time>
      </trkpt>
      <trkpt lat="48.60452" lon="1.96656">
        <ele>137.61</ele>
        <time>2018-03-29T08:10:08Z</time>
      </trkpt>
      <trkpt lat="48.60455" lon="1.9665">
        <ele>137.13</ele>
        <time>2018-03-29T08:10:12Z</time>
      </trkpt>
      <trkpt lat="48.60468" lon="1.96627">
        <ele>136.64</ele>
        <time>2018-03-29T08:10:28Z</time>
      </trkpt>
      <trkpt lat="48.60477" lon="1.96604">
        <ele>137.13</ele>
        <time>2018-03-29T08:10:39Z</time>
      </trkpt>
      <trkpt lat="48.60493" lon="1.96575">
        <ele>136.64</ele>
        <time>2018-03-29T08:10:54Z</time>
      </trkpt>
      <trkpt lat="48.60493" lon="1.9657">
        <ele>136.64</ele>
        <time>2018-03-29T08:10:57Z</time>
      </trkpt>
      <trkpt lat="48.60495" lon="1.96559">
        <ele>136.64</ele>
        <time>2018-03-29T08:11:04Z</time>
      </trkpt>
      <trkpt lat="48.60497" lon="1.96552">
        <ele>136.16</ele>
        <time>2018-03-29T08:11:08Z</time>
      </trkpt>
      <trkpt lat="48.60516" lon="1.96527">
        <ele>134.24</ele>
        <time>2018-03-29T08:11:24Z</time>
      </trkpt>
      <trkpt lat="48.60522" lon="1.96511">
        <ele>135.2</ele>
        <time>2018-03-29T08:11:39Z</time>
      </trkpt>
      <trkpt lat="48.60522" lon="1.96512">
        <ele>135.68</ele>
        <time>2018-03-29T08:11:43Z</time>
      </trkpt>
      <trkpt lat="48.60527" lon="1.96495">
        <ele>135.2</ele>
        <time>2018-03-29T08:11:52Z</time>
      </trkpt>
      <trkpt lat="48.60541" lon="1.96471">
        <ele>135.68</ele>
        <time>2018-03-29T08:12:05Z</time>
      </trkpt>
      <trkpt lat="48.60545" lon="1.9646">
        <ele>134.72</ele>
        <time>2018-03-29T08:12:09Z</time>
      </trkpt>
      <trkpt lat="48.60555" lon="1.96444">
        <ele>133.76</ele>
        <time>2018-03-29T08:12:21Z</time>
      </trkpt>
      <trkpt lat="48.60564" lon="1.96423">
        <ele>130.88</ele>
        <time>2018-03-29T08:12:36Z</time>
      </trkpt>
      <trkpt lat="48.60573" lon="1.964">
        <ele>127.51</ele>
        <time>2018-03-29T08:12:47Z</time>
      </trkpt>
      <trkpt lat="48.60581" lon="1.96384">
        <ele>126.07</ele>
        <time>2018-03-29T08:12:55Z</time>
      </trkpt>
      <trkpt lat="48.60593" lon="1.96365">
        <ele>124.63</ele>
        <time>2018-03-29T08:13:08Z</time>
      </trkpt>
      <trkpt lat="48.60607" lon="1.96358">
        <ele>124.15</ele>
        <time>2018-03-29T08:13:22Z</time>
      </trkpt>
      <trkpt lat="48.60608" lon="1.96361">
        <ele>124.15</ele>
        <time>2018-03-29T08:13:42Z</time>
      </trkpt>
      <trkpt lat="48.60607" lon="1.96358">
        <ele>123.67</ele>
        <time>2018-03-29T08:14:08Z</time>
      </trkpt>
      <trkpt lat="48.60606" lon="1.96357">
        <ele>126.07</ele>
        <time>2018-03-29T08:14:09Z</time>
      </trkpt>
      <trkpt lat="48.60606" lon="1.96349">
        <ele>124.63</ele>
        <time>2018-03-29T08:14:12Z</time>
      </trkpt>
      <trkpt lat="48.60608" lon="1.96336">
        <ele>124.63</ele>
        <time>2018-03-29T08:14:16Z</time>
      </trkpt>
      <trkpt lat="48.60615" lon="1.96308">
        <ele>124.15</ele>
        <time>2018-03-29T08:14:30Z</time>
      </trkpt>
      <trkpt lat="48.60634" lon="1.96277">
        <ele>123.19</ele>
        <time>2018-03-29T08:14:45Z</time>
      </trkpt>
      <trkpt lat="48.60646" lon="1.96247">
        <ele>122.22</ele>
        <time>2018-03-29T08:15:02Z</time>
      </trkpt>
      <trkpt lat="48.60656" lon="1.96252">
        <ele>121.74</ele>
        <time>2018-03-29T08:15:07Z</time>
      </trkpt>
      <trkpt lat="48.60659" lon="1.96257">
        <ele>121.74</ele>
        <time>2018-03-29T08:15:09Z</time>
      </trkpt>
      <trkpt lat="48.60676" lon="1.96281">
        <ele>120.78</ele>
        <time>2018-03-29T08:15:22Z</time>
      </trkpt>
      <trkpt lat="48.6068" lon="1.96296">
        <ele>120.78</ele>
        <time>2018-03-29T08:15:30Z</time>
      </trkpt>
      <trkpt lat="48.6069" lon="1.96333">
        <ele>120.3</ele>
        <time>2018-03-29T08:15:46Z</time>
      </trkpt>
      <trkpt lat="48.60699" lon="1.96361">
        <ele>119.82</ele>
        <time>2018-03-29T08:16:00Z</time>
      </trkpt>
      <trkpt lat="48.60699" lon="1.96366">
        <ele>119.34</ele>
        <time>2018-03-29T08:16:03Z</time>
      </trkpt>
      <trkpt lat="48.60703" lon="1.9638">
        <ele>118.86</ele>
        <time>2018-03-29T08:16:11Z</time>
      </trkpt>
      <trkpt lat="48.60705" lon="1.96386">
        <ele>118.86</ele>
        <time>2018-03-29T08:16:14Z</time>
      </trkpt>
      <trkpt lat="48.60712" lon="1.96397">
        <ele>118.38</ele>
        <time>2018-03-29T08:16:20Z</time>
      </trkpt>
      <trkpt lat="48.60715" lon="1.96422">
        <ele>118.38</ele>
        <time>2018-03-29T08:16:32Z</time>
      </trkpt>
      <trkpt lat="48.60715" lon="1.96426">
        <ele>117.9</ele>
        <time>2018-03-29T08:16:35Z</time>
      </trkpt>
      <trkpt lat="48.60715" lon="1.96444">
        <ele>117.9</ele>
        <time>2018-03-29T08:16:42Z</time>
      </trkpt>
      <trkpt lat="48.6071" lon="1.96478">
        <ele>117.42</ele>
        <time>2018-03-29T08:16:56Z</time>
      </trkpt>
      <trkpt lat="48.60709" lon="1.96489">
        <ele>117.42</ele>
        <time>2018-03-29T08:17:02Z</time>
      </trkpt>
      <trkpt lat="48.60709" lon="1.96499">
        <ele>117.42</ele>
        <time>2018-03-29T08:17:06Z</time>
      </trkpt>
      <trkpt lat="48.60705" lon="1.96533">
        <ele>116.94</ele>
        <time>2018-03-29T08:17:20Z</time>
      </trkpt>
      <trkpt lat="48.60702" lon="1.96553">
        <ele>116.94</ele>
        <time>2018-03-29T08:17:31Z</time>
      </trkpt>
      <trkpt lat="48.60705" lon="1.96564">
        <ele>117.42</ele>
        <time>2018-03-29T08:17:36Z</time>
      </trkpt>
      <trkpt lat="48.60707" lon="1.96569">
        <ele>117.42</ele>
        <time>2018-03-29T08:17:39Z</time>
      </trkpt>
      <trkpt lat="48.60709" lon="1.9658">
        <ele>116.46</ele>
        <time>2018-03-29T08:17:44Z</time>
      </trkpt>
      <trkpt lat="48.60708" lon="1.96602">
        <ele>116.46</ele>
        <time>2018-03-29T08:17:52Z</time>
      </trkpt>
      <trkpt lat="48.60707" lon="1.96621">
        <ele>116.94</ele>
        <time>2018-03-29T08:18:00Z</time>
      </trkpt>
      <trkpt lat="48.60708" lon="1.96633">
        <ele>115.98</ele>
        <time>2018-03-29T08:18:06Z</time>
      </trkpt>
      <trkpt lat="48.60705" lon="1.96652">
        <ele>115.98</ele>
        <time>2018-03-29T08:18:16Z</time>
      </trkpt>
      <trkpt lat="48.60706" lon="1.96691">
        <ele>115.5</ele>
        <time>2018-03-29T08:18:31Z</time>
      </trkpt>
      <trkpt lat="48.60707" lon="1.96714">
        <ele>115.5</ele>
        <time>2018-03-29T08:18:42Z</time>
      </trkpt>
      <trkpt lat="48.60712" lon="1.96739">
        <ele>114.53</ele>
        <time>2018-03-29T08:18:55Z</time>
      </trkpt>
      <trkpt lat="48.60716" lon="1.96765">
        <ele>114.05</ele>
        <time>2018-03-29T08:19:07Z</time>
      </trkpt>
      <trkpt lat="48.60712" lon="1.96793">
        <ele>114.53</ele>
        <time>2018-03-29T08:19:23Z</time>
      </trkpt>
      <trkpt lat="48.6071" lon="1.9682">
        <ele>114.05</ele>
        <time>2018-03-29T08:19:36Z</time>
      </trkpt>
      <trkpt lat="48.60707" lon="1.96836">
        <ele>114.05</ele>
        <time>2018-03-29T08:19:43Z</time>
      </trkpt>
      <trkpt lat="48.60699" lon="1.96866">
        <ele>114.53</ele>
        <time>2018-03-29T08:19:56Z</time>
      </trkpt>
      <trkpt lat="48.60694" lon="1.96895">
        <ele>114.05</ele>
        <time>2018-03-29T08:20:11Z</time>
      </trkpt>
      <trkpt lat="48.60691" lon="1.96914">
        <ele>114.05</ele>
        <time>2018-03-29T08:20:19Z</time>
      </trkpt>
      <trkpt lat="48.60687" lon="1.96926">
        <ele>113.57</ele>
        <time>2018-03-29T08:20:26Z</time>
      </trkpt>
      <trkpt lat="48.60678" lon="1.96953">
        <ele>114.05</ele>
        <time>2018-03-29T08:20:37Z</time>
      </trkpt>
      <trkpt lat="48.60667" lon="1.9697">
        <ele>114.53</ele>
        <time>2018-03-29T08:20:48Z</time>
      </trkpt>
      <trkpt lat="48.6066" lon="1.96999">
        <ele>115.5</ele>
        <time>2018-03-29T08:21:04Z</time>
      </trkpt>
      <trkpt lat="48.60658" lon="1.97023">
        <ele>114.05</ele>
        <time>2018-03-29T08:21:17Z</time>
      </trkpt>
      <trkpt lat="48.60659" lon="1.97028">
        <ele>114.05</ele>
        <time>2018-03-29T08:21:19Z</time>
      </trkpt>
      <trkpt lat="48.60658" lon="1.97049">
        <ele>115.5</ele>
        <time>2018-03-29T08:21:30Z</time>
      </trkpt>
      <trkpt lat="48.6064" lon="1.97039">
        <ele>115.5</ele>
        <time>2018-03-29T08:21:43Z</time>
      </trkpt>
      <trkpt lat="48.60635" lon="1.97032">
        <ele>116.46</ele>
        <time>2018-03-29T08:21:48Z</time>
      </trkpt>
      <trkpt lat="48.60629" lon="1.97021">
        <ele>116.46</ele>
        <time>2018-03-29T08:21:55Z</time>
      </trkpt>
      <trkpt lat="48.60609" lon="1.97001">
        <ele>116.94</ele>
        <time>2018-03-29T08:22:10Z</time>
      </trkpt>
      <trkpt lat="48.60595" lon="1.96982">
        <ele>120.78</ele>
        <time>2018-03-29T08:22:24Z</time>
      </trkpt>
      <trkpt lat="48.60579" lon="1.9697">
        <ele>121.74</ele>
        <time>2018-03-29T08:22:38Z</time>
      </trkpt>
      <trkpt lat="48.60576" lon="1.96969">
        <ele>122.71</ele>
        <time>2018-03-29T08:22:40Z</time>
      </trkpt>
      <trkpt lat="48.60568" lon="1.96958">
        <ele>123.67</ele>
        <time>2018-03-29T08:22:48Z</time>
      </trkpt>
      <trkpt lat="48.60559" lon="1.96952">
        <ele>124.15</ele>
        <time>2018-03-29T08:22:56Z</time>
      </trkpt>
      <trkpt lat="48.6055" lon="1.96944">
        <ele>124.63</ele>
        <time>2018-03-29T08:23:02Z</time>
      </trkpt>
      <trkpt lat="48.60548" lon="1.96942">
        <ele>126.07</ele>
        <time>2018-03-29T08:23:04Z</time>
      </trkpt>
      <trkpt lat="48.60547" lon="1.96941">
        <ele>125.11</ele>
        <time>2018-03-29T08:23:05Z</time>
      </trkpt>
      <trkpt lat="48.60541" lon="1.96934">
        <ele>126.55</ele>
        <time>2018-03-29T08:23:11Z</time>
      </trkpt>
      <trkpt lat="48.60538" lon="1.96931">
        <ele>126.55</ele>
        <time>2018-03-29T08:23:14Z</time>
      </trkpt>
      <trkpt lat="48.60533" lon="1.96926">
        <ele>127.99</ele>
        <time>2018-03-29T08:23:20Z</time>
      </trkpt>
      <trkpt lat="48.60529" lon="1.96922">
        <ele>130.4</ele>
        <time>2018-03-29T08:23:24Z</time>
      </trkpt>
      <trkpt lat="48.60526" lon="1.9692">
        <ele>128.95</ele>
        <time>2018-03-29T08:23:27Z</time>
      </trkpt>
      <trkpt lat="48.60522" lon="1.96917">
        <ele>130.4</ele>
        <time>2018-03-29T08:23:32Z</time>
      </trkpt>
      <trkpt lat="48.6052" lon="1.96915">
        <ele>130.4</ele>
        <time>2018-03-29T08:23:34Z</time>
      </trkpt>
      <trkpt lat="48.60518" lon="1.9691">
        <ele>131.36</ele>
        <time>2018-03-29T08:23:38Z</time>
      </trkpt>
      <trkpt lat="48.60517" lon="1.96908">
        <ele>130.88</ele>
        <time>2018-03-29T08:23:39Z</time>
      </trkpt>
      <trkpt lat="48.60512" lon="1.96902">
        <ele>132.8</ele>
        <time>2018-03-29T08:23:43Z</time>
      </trkpt>
      <trkpt lat="48.60509" lon="1.96898">
        <ele>133.76</ele>
        <time>2018-03-29T08:23:47Z</time>
      </trkpt>
      <trkpt lat="48.60504" lon="1.96893">
        <ele>134.72</ele>
        <time>2018-03-29T08:23:52Z</time>
      </trkpt>
      <trkpt lat="48.605" lon="1.96889">
        <ele>133.28</ele>
        <time>2018-03-29T08:23:56Z</time>
      </trkpt>
      <trkpt lat="48.60497" lon="1.96886">
        <ele>134.72</ele>
        <time>2018-03-29T08:23:58Z</time>
      </trkpt>
      <trkpt lat="48.60484" lon="1.96872">
        <ele>135.68</ele>
        <time>2018-03-29T08:24:10Z</time>
      </trkpt>
      <trkpt lat="48.60476" lon="1.96868">
        <ele>136.16</ele>
        <time>2018-03-29T08:24:18Z</time>
      </trkpt>
      <trkpt lat="48.60475" lon="1.96866">
        <ele>138.09</ele>
        <time>2018-03-29T08:24:20Z</time>
      </trkpt>
      <trkpt lat="48.60474" lon="1.96865">
        <ele>137.61</ele>
        <time>2018-03-29T08:24:21Z</time>
      </trkpt>
      <trkpt lat="48.60463" lon="1.96856">
        <ele>139.53</ele>
        <time>2018-03-29T08:24:30Z</time>
      </trkpt>
      <trkpt lat="48.60456" lon="1.96849">
        <ele>139.53</ele>
        <time>2018-03-29T08:24:38Z</time>
      </trkpt>
      <trkpt lat="48.60443" lon="1.96833">
        <ele>141.45</ele>
        <time>2018-03-29T08:24:54Z</time>
      </trkpt>
      <trkpt lat="48.6044" lon="1.96829">
        <ele>141.93</ele>
        <time>2018-03-29T08:25:10Z</time>
      </trkpt>
      <trkpt lat="48.6043" lon="1.96815">
        <ele>140.97</ele>
        <time>2018-03-29T08:25:21Z</time>
      </trkpt>
      <trkpt lat="48.60426" lon="1.9681">
        <ele>141.93</ele>
        <time>2018-03-29T08:25:24Z</time>
      </trkpt>
      <trkpt lat="48.60425" lon="1.96808">
        <ele>142.41</ele>
        <time>2018-03-29T08:25:25Z</time>
      </trkpt>
      <trkpt lat="48.60416" lon="1.96799">
        <ele>142.41</ele>
        <time>2018-03-29T08:25:32Z</time>
      </trkpt>
      <trkpt lat="48.60411" lon="1.96796">
        <ele>141.45</ele>
        <time>2018-03-29T08:25:35Z</time>
      </trkpt>
      <trkpt lat="48.604" lon="1.96792">
        <ele>141.93</ele>
        <time>2018-03-29T08:25:48Z</time>
      </trkpt>
      <trkpt lat="48.60399" lon="1.9679">
        <ele>141.93</ele>
        <time>2018-03-29T08:26:08Z</time>
      </trkpt>
      <trkpt lat="48.60398" lon="1.9679">
        <ele>141.45</ele>
        <time>2018-03-29T08:26:28Z</time>
      </trkpt>
      <trkpt lat="48.60396" lon="1.96787">
        <ele>142.41</ele>
        <time>2018-03-29T08:26:41Z</time>
      </trkpt>
      <trkpt lat="48.60395" lon="1.96787">
        <ele>141.93</ele>
        <time>2018-03-29T08:26:59Z</time>
      </trkpt>
      <trkpt lat="48.60395" lon="1.96787">
        <ele>141.93</ele>
        <time>2018-03-29T08:27:16Z</time>
      </trkpt>
      <trkpt lat="48.60396" lon="1.96787">
        <ele>141.45</ele>
        <time>2018-03-29T08:27:40Z</time>
      </trkpt>
      <trkpt lat="48.60397" lon="1.96788">
        <ele>140.01</ele>
        <time>2018-03-29T08:27:52Z</time>
      </trkpt>
      <trkpt lat="48.60397" lon="1.96788">
        <ele>143.37</ele>
        <time>2018-03-29T08:27:54Z</time>
      </trkpt>
      <trkpt lat="48.60396" lon="1.96788">
        <ele>141.45</ele>
        <time>2018-03-29T08:28:12Z</time>
      </trkpt>
      <trkpt lat="48.60398" lon="1.96791">
        <ele>140.97</ele>
        <time>2018-03-29T08:28:28Z</time>
      </trkpt>
      <trkpt lat="48.60396" lon="1.96797">
        <ele>140.97</ele>
        <time>2018-03-29T08:28:41Z</time>
      </trkpt>
      <trkpt lat="48.60394" lon="1.96803">
        <ele>140.49</ele>
        <time>2018-03-29T08:28:44Z</time>
      </trkpt>
      <trkpt lat="48.60391" lon="1.96811">
        <ele>140.97</ele>
        <time>2018-03-29T08:28:48Z</time>
      </trkpt>
      <trkpt lat="48.60389" lon="1.96812">
        <ele>140.49</ele>
        <time>2018-03-29T08:28:52Z</time>
      </trkpt>
      <trkpt lat="48.60384" lon="1.96825">
        <ele>140.01</ele>
        <time>2018-03-29T08:28:58Z</time>
      </trkpt>
      <trkpt lat="48.6038" lon="1.96835">
        <ele>139.53</ele>
        <time>2018-03-29T08:29:02Z</time>
      </trkpt>
      <trkpt lat="48.60372" lon="1.96859">
        <ele>137.13</ele>
        <time>2018-03-29T08:29:13Z</time>
      </trkpt>
      <trkpt lat="48.60369" lon="1.96864">
        <ele>136.16</ele>
        <time>2018-03-29T08:29:16Z</time>
      </trkpt>
      <trkpt lat="48.60362" lon="1.96878">
        <ele>132.8</ele>
        <time>2018-03-29T08:29:28Z</time>
      </trkpt>
      <trkpt lat="48.60358" lon="1.96887">
        <ele>130.4</ele>
        <time>2018-03-29T08:29:35Z</time>
      </trkpt>
      <trkpt lat="48.60352" lon="1.96902">
        <ele>127.51</ele>
        <time>2018-03-29T08:29:44Z</time>
      </trkpt>
      <trkpt lat="48.60341" lon="1.96931">
        <ele>125.11</ele>
        <time>2018-03-29T08:29:54Z</time>
      </trkpt>
      <trkpt lat="48.60337" lon="1.96938">
        <ele>124.15</ele>
        <time>2018-03-29T08:29:59Z</time>
      </trkpt>
      <trkpt lat="48.60324" lon="1.96961">
        <ele>122.22</ele>
        <time>2018-03-29T08:30:11Z</time>
      </trkpt>
      <trkpt lat="48.60312" lon="1.96979">
        <ele>120.3</ele>
        <time>2018-03-29T08:30:24Z</time>
      </trkpt>
      <trkpt lat="48.60304" lon="1.97006">
        <ele>118.86</ele>
        <time>2018-03-29T08:30:38Z</time>
      </trkpt>
      <trkpt lat="48.60305" lon="1.97022">
        <ele>118.38</ele>
        <time>2018-03-29T08:30:45Z</time>
      </trkpt>
      <trkpt lat="48.60305" lon="1.97037">
        <ele>117.42</ele>
        <time>2018-03-29T08:30:50Z</time>
      </trkpt>
      <trkpt lat="48.60309" lon="1.97047">
        <ele>117.42</ele>
        <time>2018-03-29T08:30:56Z</time>
      </trkpt>
      <trkpt lat="48.60308" lon="1.97058">
        <ele>117.42</ele>
        <time>2018-03-29T08:31:00Z</time>
      </trkpt>
      <trkpt lat="48.60309" lon="1.97068">
        <ele>116.94</ele>
        <time>2018-03-29T08:31:04Z</time>
      </trkpt>
      <trkpt lat="48.60312" lon="1.97077">
        <ele>116.94</ele>
        <time>2018-03-29T08:31:08Z</time>
      </trkpt>
      <trkpt lat="48.60325" lon="1.97099">
        <ele>116.94</ele>
        <time>2018-03-29T08:31:21Z</time>
      </trkpt>
      <trkpt lat="48.60324" lon="1.97101">
        <ele>116.94</ele>
        <time>2018-03-29T08:31:31Z</time>
      </trkpt>
      <trkpt lat="48.60334" lon="1.97111">
        <ele>116.94</ele>
        <time>2018-03-29T08:31:40Z</time>
      </trkpt>
      <trkpt lat="48.60347" lon="1.97127">
        <ele>116.94</ele>
        <time>2018-03-29T08:31:51Z</time>
      </trkpt>
      <trkpt lat="48.60352" lon="1.97135">
        <ele>116.94</ele>
        <time>2018-03-29T08:31:55Z</time>
      </trkpt>
      <trkpt lat="48.60352" lon="1.97142">
        <ele>116.46</ele>
        <time>2018-03-29T08:31:59Z</time>
      </trkpt>
      <trkpt lat="48.60353" lon="1.97145">
        <ele>116.94</ele>
        <time>2018-03-29T08:32:01Z</time>
      </trkpt>
      <trkpt lat="48.60358" lon="1.97153">
        <ele>116.46</ele>
        <time>2018-03-29T08:32:07Z</time>
      </trkpt>
      <trkpt lat="48.60371" lon="1.97167">
        <ele>116.46</ele>
        <time>2018-03-29T08:32:16Z</time>
      </trkpt>
      <trkpt lat="48.60386" lon="1.97184">
        <ele>116.46</ele>
        <time>2018-03-29T08:32:29Z</time>
      </trkpt>
      <trkpt lat="48.60391" lon="1.97195">
        <ele>115.98</ele>
        <time>2018-03-29T08:32:36Z</time>
      </trkpt>
      <trkpt lat="48.60396" lon="1.972">
        <ele>115.98</ele>
        <time>2018-03-29T08:32:39Z</time>
      </trkpt>
      <trkpt lat="48.60413" lon="1.9722">
        <ele>115.01</ele>
        <time>2018-03-29T08:32:52Z</time>
      </trkpt>
      <trkpt lat="48.6042" lon="1.9723">
        <ele>115.01</ele>
        <time>2018-03-29T08:32:57Z</time>
      </trkpt>
      <trkpt lat="48.60433" lon="1.97243">
        <ele>114.05</ele>
        <time>2018-03-29T08:33:09Z</time>
      </trkpt>
      <trkpt lat="48.60451" lon="1.97257">
        <ele>114.05</ele>
        <time>2018-03-29T08:33:22Z</time>
      </trkpt>
      <trkpt lat="48.60469" lon="1.9727">
        <ele>113.57</ele>
        <time>2018-03-29T08:33:35Z</time>
      </trkpt>
      <trkpt lat="48.60486" lon="1.97276">
        <ele>113.09</ele>
        <time>2018-03-29T08:33:47Z</time>
      </trkpt>
      <trkpt lat="48.60493" lon="1.97277">
        <ele>112.61</ele>
        <time>2018-03-29T08:33:55Z</time>
      </trkpt>
      <trkpt lat="48.60514" lon="1.9729">
        <ele>111.65</ele>
        <time>2018-03-29T08:34:09Z</time>
      </trkpt>
      <trkpt lat="48.60533" lon="1.97302">
        <ele>110.69</ele>
        <time>2018-03-29T08:34:22Z</time>
      </trkpt>
      <trkpt lat="48.60538" lon="1.97304">
        <ele>110.21</ele>
        <time>2018-03-29T08:34:26Z</time>
      </trkpt>
      <trkpt lat="48.60545" lon="1.97309">
        <ele>110.69</ele>
        <time>2018-03-29T08:34:33Z</time>
      </trkpt>
      <trkpt lat="48.60553" lon="1.97314">
        <ele>109.73</ele>
        <time>2018-03-29T08:34:39Z</time>
      </trkpt>
      <trkpt lat="48.60568" lon="1.97334">
        <ele>109.73</ele>
        <time>2018-03-29T08:34:54Z</time>
      </trkpt>
      <trkpt lat="48.60578" lon="1.97346">
        <ele>109.25</ele>
        <time>2018-03-29T08:35:06Z</time>
      </trkpt>
      <trkpt lat="48.60579" lon="1.97347">
        <ele>109.25</ele>
        <time>2018-03-29T08:35:07Z</time>
      </trkpt>
      <trkpt lat="48.60581" lon="1.97351">
        <ele>109.25</ele>
        <time>2018-03-29T08:35:09Z</time>
      </trkpt>
      <trkpt lat="48.60595" lon="1.97362">
        <ele>108.77</ele>
        <time>2018-03-29T08:35:22Z</time>
      </trkpt>
      <trkpt lat="48.60603" lon="1.97376">
        <ele>107.81</ele>
        <time>2018-03-29T08:35:32Z</time>
      </trkpt>
      <trkpt lat="48.60607" lon="1.97383">
        <ele>107.81</ele>
        <time>2018-03-29T08:35:36Z</time>
      </trkpt>
      <trkpt lat="48.60617" lon="1.97403">
        <ele>107.32</ele>
        <time>2018-03-29T08:35:48Z</time>
      </trkpt>
      <trkpt lat="48.60619" lon="1.97406">
        <ele>107.32</ele>
        <time>2018-03-29T08:35:50Z</time>
      </trkpt>
      <trkpt lat="48.60625" lon="1.97417">
        <ele>106.84</ele>
        <time>2018-03-29T08:35:56Z</time>
      </trkpt>
      <trkpt lat="48.60629" lon="1.97427">
        <ele>106.84</ele>
        <time>2018-03-29T08:36:03Z</time>
      </trkpt>
      <trkpt lat="48.60648" lon="1.97442">
        <ele>106.36</ele>
        <time>2018-03-29T08:36:16Z</time>
      </trkpt>
      <trkpt lat="48.60654" lon="1.9745">
        <ele>105.88</ele>
        <time>2018-03-29T08:36:21Z</time>
      </trkpt>
      <trkpt lat="48.60657" lon="1.97454">
        <ele>105.88</ele>
        <time>2018-03-29T08:36:23Z</time>
      </trkpt>
      <trkpt lat="48.60665" lon="1.97466">
        <ele>105.88</ele>
        <time>2018-03-29T08:36:30Z</time>
      </trkpt>
      <trkpt lat="48.60684" lon="1.97473">
        <ele>105.4</ele>
        <time>2018-03-29T08:36:43Z</time>
      </trkpt>
      <trkpt lat="48.60702" lon="1.97476">
        <ele>104.44</ele>
        <time>2018-03-29T08:36:57Z</time>
      </trkpt>
      <trkpt lat="48.60703" lon="1.97476">
        <ele>104.44</ele>
        <time>2018-03-29T08:36:58Z</time>
      </trkpt>
      <trkpt lat="48.60724" lon="1.97466">
        <ele>103.48</ele>
        <time>2018-03-29T08:37:13Z</time>
      </trkpt>
      <trkpt lat="48.60741" lon="1.97454">
        <ele>103</ele>
        <time>2018-03-29T08:37:27Z</time>
      </trkpt>
      <trkpt lat="48.60756" lon="1.97442">
        <ele>102.52</ele>
        <time>2018-03-29T08:37:39Z</time>
      </trkpt>
      <trkpt lat="48.60773" lon="1.97437">
        <ele>102.52</ele>
        <time>2018-03-29T08:37:53Z</time>
      </trkpt>
      <trkpt lat="48.60777" lon="1.97442">
        <ele>102.04</ele>
        <time>2018-03-29T08:37:57Z</time>
      </trkpt>
      <trkpt lat="48.60785" lon="1.97459">
        <ele>102.04</ele>
        <time>2018-03-29T08:38:06Z</time>
      </trkpt>
      <trkpt lat="48.60788" lon="1.97468">
        <ele>103.48</ele>
        <time>2018-03-29T08:38:10Z</time>
      </trkpt>
      <trkpt lat="48.60788" lon="1.97473">
        <ele>102.52</ele>
        <time>2018-03-29T08:38:12Z</time>
      </trkpt>
      <trkpt lat="48.60788" lon="1.97477">
        <ele>102.04</ele>
        <time>2018-03-29T08:38:14Z</time>
      </trkpt>
      <trkpt lat="48.60791" lon="1.97496">
        <ele>102.04</ele>
        <time>2018-03-29T08:38:25Z</time>
      </trkpt>
      <trkpt lat="48.60791" lon="1.97499">
        <ele>101.56</ele>
        <time>2018-03-29T08:38:38Z</time>
      </trkpt>
      <trkpt lat="48.60792" lon="1.975">
        <ele>101.56</ele>
        <time>2018-03-29T08:38:54Z</time>
      </trkpt>
      <trkpt lat="48.60792" lon="1.975">
        <ele>101.08</ele>
        <time>2018-03-29T08:39:21Z</time>
      </trkpt>
      <trkpt lat="48.60793" lon="1.975">
        <ele>101.56</ele>
        <time>2018-03-29T08:39:51Z</time>
      </trkpt>
      <trkpt lat="48.60793" lon="1.975">
        <ele>101.08</ele>
        <time>2018-03-29T08:40:22Z</time>
      </trkpt>
      <trkpt lat="48.60792" lon="1.975">
        <ele>101.56</ele>
        <time>2018-03-29T08:40:48Z</time>
      </trkpt>
      <trkpt lat="48.60793" lon="1.97502">
        <ele>102.04</ele>
        <time>2018-03-29T08:41:08Z</time>
      </trkpt>
      <trkpt lat="48.60792" lon="1.97503">
        <ele>101.56</ele>
        <time>2018-03-29T08:41:24Z</time>
      </trkpt>
      <trkpt lat="48.60794" lon="1.97507">
        <ele>101.08</ele>
        <time>2018-03-29T08:41:40Z</time>
      </trkpt>
      <trkpt lat="48.60793" lon="1.97513">
        <ele>101.08</ele>
        <time>2018-03-29T08:41:43Z</time>
      </trkpt>
      <trkpt lat="48.60802" lon="1.97531">
        <ele>101.08</ele>
        <time>2018-03-29T08:41:52Z</time>
      </trkpt>
      <trkpt lat="48.60805" lon="1.97537">
        <ele>101.08</ele>
        <time>2018-03-29T08:41:55Z</time>
      </trkpt>
      <trkpt lat="48.6081" lon="1.97562">
        <ele>100.6</ele>
        <time>2018-03-29T08:42:06Z</time>
      </trkpt>
      <trkpt lat="48.60817" lon="1.97575">
        <ele>100.6</ele>
        <time>2018-03-29T08:42:15Z</time>
      </trkpt>
      <trkpt lat="48.60821" lon="1.97587">
        <ele>100.11</ele>
        <time>2018-03-29T08:42:24Z</time>
      </trkpt>
      <trkpt lat="48.60823" lon="1.97599">
        <ele>100.6</ele>
        <time>2018-03-29T08:42:28Z</time>
      </trkpt>
      <trkpt lat="48.60822" lon="1.97603">
        <ele>100.11</ele>
        <time>2018-03-29T08:42:31Z</time>
      </trkpt>
      <trkpt lat="48.60826" lon="1.9761">
        <ele>100.6</ele>
        <time>2018-03-29T08:42:36Z</time>
      </trkpt>
      <trkpt lat="48.60828" lon="1.97626">
        <ele>100.11</ele>
        <time>2018-03-29T08:42:42Z</time>
      </trkpt>
      <trkpt lat="48.60833" lon="1.9766">
        <ele>99.63</ele>
        <time>2018-03-29T08:42:56Z</time>
      </trkpt>
      <trkpt lat="48.60832" lon="1.97663">
        <ele>99.63</ele>
        <time>2018-03-29T08:42:57Z</time>
      </trkpt>
      <trkpt lat="48.60834" lon="1.97678">
        <ele>99.15</ele>
        <time>2018-03-29T08:43:07Z</time>
      </trkpt>
      <trkpt lat="48.60835" lon="1.97684">
        <ele>99.15</ele>
        <time>2018-03-29T08:43:10Z</time>
      </trkpt>
      <trkpt lat="48.60833" lon="1.97708">
        <ele>99.15</ele>
        <time>2018-03-29T08:43:22Z</time>
      </trkpt>
      <trkpt lat="48.60834" lon="1.97713">
        <ele>99.15</ele>
        <time>2018-03-29T08:43:25Z</time>
      </trkpt>
      <trkpt lat="48.60832" lon="1.97723">
        <ele>98.67</ele>
        <time>2018-03-29T08:43:29Z</time>
      </trkpt>
      <trkpt lat="48.60829" lon="1.97747">
        <ele>98.19</ele>
        <time>2018-03-29T08:43:40Z</time>
      </trkpt>
      <trkpt lat="48.60827" lon="1.97764">
        <ele>98.19</ele>
        <time>2018-03-29T08:43:48Z</time>
      </trkpt>
      <trkpt lat="48.60825" lon="1.97796">
        <ele>97.71</ele>
        <time>2018-03-29T08:44:00Z</time>
      </trkpt>
      <trkpt lat="48.60824" lon="1.97808">
        <ele>97.71</ele>
        <time>2018-03-29T08:44:07Z</time>
      </trkpt>
      <trkpt lat="48.60826" lon="1.97818">
        <ele>97.71</ele>
        <time>2018-03-29T08:44:11Z</time>
      </trkpt>
      <trkpt lat="48.60826" lon="1.97833">
        <ele>97.71</ele>
        <time>2018-03-29T08:44:20Z</time>
      </trkpt>
      <trkpt lat="48.6082" lon="1.9786">
        <ele>97.23</ele>
        <time>2018-03-29T08:44:29Z</time>
      </trkpt>
      <trkpt lat="48.60818" lon="1.97876">
        <ele>97.71</ele>
        <time>2018-03-29T08:44:36Z</time>
      </trkpt>
      <trkpt lat="48.60815" lon="1.9789">
        <ele>97.71</ele>
        <time>2018-03-29T08:44:43Z</time>
      </trkpt>
      <trkpt lat="48.60813" lon="1.97917">
        <ele>98.19</ele>
        <time>2018-03-29T08:44:56Z</time>
      </trkpt>
      <trkpt lat="48.60813" lon="1.97924">
        <ele>97.71</ele>
        <time>2018-03-29T08:44:59Z</time>
      </trkpt>
      <trkpt lat="48.60811" lon="1.97937">
        <ele>98.19</ele>
        <time>2018-03-29T08:45:08Z</time>
      </trkpt>
      <trkpt lat="48.60808" lon="1.97953">
        <ele>98.19</ele>
        <time>2018-03-29T08:45:15Z</time>
      </trkpt>
      <trkpt lat="48.60807" lon="1.97973">
        <ele>98.67</ele>
        <time>2018-03-29T08:45:24Z</time>
      </trkpt>
      <trkpt lat="48.60804" lon="1.97982">
        <ele>98.67</ele>
        <time>2018-03-29T08:45:27Z</time>
      </trkpt>
      <trkpt lat="48.60797" lon="1.98005">
        <ele>98.19</ele>
        <time>2018-03-29T08:45:36Z</time>
      </trkpt>
      <trkpt lat="48.60796" lon="1.9801">
        <ele>98.67</ele>
        <time>2018-03-29T08:45:38Z</time>
      </trkpt>
      <trkpt lat="48.60793" lon="1.9802">
        <ele>98.19</ele>
        <time>2018-03-29T08:45:42Z</time>
      </trkpt>
      <trkpt lat="48.60786" lon="1.98052">
        <ele>98.19</ele>
        <time>2018-03-29T08:45:54Z</time>
      </trkpt>
      <trkpt lat="48.60784" lon="1.98073">
        <ele>98.19</ele>
        <time>2018-03-29T08:46:03Z</time>
      </trkpt>
      <trkpt lat="48.60783" lon="1.98077">
        <ele>97.71</ele>
        <time>2018-03-29T08:46:05Z</time>
      </trkpt>
      <trkpt lat="48.60779" lon="1.98098">
        <ele>97.71</ele>
        <time>2018-03-29T08:46:14Z</time>
      </trkpt>
      <trkpt lat="48.60778" lon="1.98112">
        <ele>97.71</ele>
        <time>2018-03-29T08:46:20Z</time>
      </trkpt>
      <trkpt lat="48.60776" lon="1.98117">
        <ele>98.19</ele>
        <time>2018-03-29T08:46:23Z</time>
      </trkpt>
      <trkpt lat="48.6077" lon="1.98147">
        <ele>98.19</ele>
        <time>2018-03-29T08:46:34Z</time>
      </trkpt>
      <trkpt lat="48.60766" lon="1.9817">
        <ele>97.71</ele>
        <time>2018-03-29T08:46:45Z</time>
      </trkpt>
      <trkpt lat="48.60763" lon="1.98179">
        <ele>97.23</ele>
        <time>2018-03-29T08:46:48Z</time>
      </trkpt>
      <trkpt lat="48.60756" lon="1.98208">
        <ele>97.71</ele>
        <time>2018-03-29T08:47:00Z</time>
      </trkpt>
      <trkpt lat="48.60746" lon="1.98215">
        <ele>98.19</ele>
        <time>2018-03-29T08:47:10Z</time>
      </trkpt>
      <trkpt lat="48.60741" lon="1.98225">
        <ele>98.67</ele>
        <time>2018-03-29T08:47:18Z</time>
      </trkpt>
      <trkpt lat="48.60732" lon="1.98244">
        <ele>98.19</ele>
        <time>2018-03-29T08:47:25Z</time>
      </trkpt>
      <trkpt lat="48.6073" lon="1.98249">
        <ele>98.19</ele>
        <time>2018-03-29T08:47:27Z</time>
      </trkpt>
      <trkpt lat="48.60724" lon="1.98257">
        <ele>97.71</ele>
        <time>2018-03-29T08:47:33Z</time>
      </trkpt>
      <trkpt lat="48.60706" lon="1.98268">
        <ele>97.71</ele>
        <time>2018-03-29T08:47:48Z</time>
      </trkpt>
      <trkpt lat="48.60696" lon="1.98283">
        <ele>97.23</ele>
        <time>2018-03-29T08:47:59Z</time>
      </trkpt>
      <trkpt lat="48.60695" lon="1.98285">
        <ele>96.75</ele>
        <time>2018-03-29T08:48:01Z</time>
      </trkpt>
      <trkpt lat="48.60674" lon="1.9829">
        <ele>96.27</ele>
        <time>2018-03-29T08:48:15Z</time>
      </trkpt>
      <trkpt lat="48.60668" lon="1.98292">
        <ele>96.27</ele>
        <time>2018-03-29T08:48:20Z</time>
      </trkpt>
      <trkpt lat="48.60664" lon="1.98292">
        <ele>96.75</ele>
        <time>2018-03-29T08:48:22Z</time>
      </trkpt>
      <trkpt lat="48.60656" lon="1.98293">
        <ele>96.75</ele>
        <time>2018-03-29T08:48:27Z</time>
      </trkpt>
      <trkpt lat="48.60639" lon="1.98295">
        <ele>96.75</ele>
        <time>2018-03-29T08:48:38Z</time>
      </trkpt>
      <trkpt lat="48.60619" lon="1.98312">
        <ele>97.23</ele>
        <time>2018-03-29T08:48:53Z</time>
      </trkpt>
      <trkpt lat="48.606" lon="1.98319">
        <ele>97.71</ele>
        <time>2018-03-29T08:49:07Z</time>
      </trkpt>
      <trkpt lat="48.60599" lon="1.9832">
        <ele>97.71</ele>
        <time>2018-03-29T08:49:09Z</time>
      </trkpt>
      <trkpt lat="48.60589" lon="1.98323">
        <ele>97.71</ele>
        <time>2018-03-29T08:49:14Z</time>
      </trkpt>
      <trkpt lat="48.60582" lon="1.98325">
        <ele>97.71</ele>
        <time>2018-03-29T08:49:19Z</time>
      </trkpt>
      <trkpt lat="48.60577" lon="1.98323">
        <ele>97.71</ele>
        <time>2018-03-29T08:49:22Z</time>
      </trkpt>
      <trkpt lat="48.60564" lon="1.98328">
        <ele>97.23</ele>
        <time>2018-03-29T08:49:28Z</time>
      </trkpt>
      <trkpt lat="48.60559" lon="1.98328">
        <ele>97.23</ele>
        <time>2018-03-29T08:49:31Z</time>
      </trkpt>
      <trkpt lat="48.60552" lon="1.98331">
        <ele>96.75</ele>
        <time>2018-03-29T08:49:38Z</time>
      </trkpt>
      <trkpt lat="48.60537" lon="1.9834">
        <ele>96.75</ele>
        <time>2018-03-29T08:49:46Z</time>
      </trkpt>
      <trkpt lat="48.60522" lon="1.98344">
        <ele>96.75</ele>
        <time>2018-03-29T08:49:59Z</time>
      </trkpt>
      <trkpt lat="48.60521" lon="1.98343">
        <ele>96.75</ele>
        <time>2018-03-29T08:50:00Z</time>
      </trkpt>
      <trkpt lat="48.60518" lon="1.98341">
        <ele>96.27</ele>
        <time>2018-03-29T08:50:02Z</time>
      </trkpt>
      <trkpt lat="48.60513" lon="1.98337">
        <ele>96.75</ele>
        <time>2018-03-29T08:50:06Z</time>
      </trkpt>
      <trkpt lat="48.60508" lon="1.98333">
        <ele>97.23</ele>
        <time>2018-03-29T08:50:19Z</time>
      </trkpt>
      <trkpt lat="48.60509" lon="1.98334">
        <ele>96.75</ele>
        <time>2018-03-29T08:50:33Z</time>
      </trkpt>
      <trkpt lat="48.60506" lon="1.98329">
        <ele>96.75</ele>
        <time>2018-03-29T08:50:50Z</time>
      </trkpt>
      <trkpt lat="48.60503" lon="1.98326">
        <ele>96.75</ele>
        <time>2018-03-29T08:50:53Z</time>
      </trkpt>
      <trkpt lat="48.60482" lon="1.98303">
        <ele>97.23</ele>
        <time>2018-03-29T08:51:07Z</time>
      </trkpt>
      <trkpt lat="48.60467" lon="1.98291">
        <ele>97.23</ele>
        <time>2018-03-29T08:51:19Z</time>
      </trkpt>
      <trkpt lat="48.60466" lon="1.98289">
        <ele>96.75</ele>
        <time>2018-03-29T08:51:20Z</time>
      </trkpt>
      <trkpt lat="48.60461" lon="1.98284">
        <ele>96.75</ele>
        <time>2018-03-29T08:51:23Z</time>
      </trkpt>
      <trkpt lat="48.60448" lon="1.98264">
        <ele>96.75</ele>
        <time>2018-03-29T08:51:34Z</time>
      </trkpt>
      <trkpt lat="48.6043" lon="1.98251">
        <ele>96.75</ele>
        <time>2018-03-29T08:51:49Z</time>
      </trkpt>
      <trkpt lat="48.60418" lon="1.98235">
        <ele>96.27</ele>
        <time>2018-03-29T08:51:59Z</time>
      </trkpt>
      <trkpt lat="48.60399" lon="1.98214">
        <ele>96.75</ele>
        <time>2018-03-29T08:52:13Z</time>
      </trkpt>
      <trkpt lat="48.60389" lon="1.98204">
        <ele>96.75</ele>
        <time>2018-03-29T08:52:20Z</time>
      </trkpt>
      <trkpt lat="48.60378" lon="1.98193">
        <ele>97.71</ele>
        <time>2018-03-29T08:52:29Z</time>
      </trkpt>
      <trkpt lat="48.6036" lon="1.98178">
        <ele>98.19</ele>
        <time>2018-03-29T08:52:43Z</time>
      </trkpt>
      <trkpt lat="48.60357" lon="1.98175">
        <ele>98.67</ele>
        <time>2018-03-29T08:52:45Z</time>
      </trkpt>
      <trkpt lat="48.60341" lon="1.98158">
        <ele>98.67</ele>
        <time>2018-03-29T08:52:57Z</time>
      </trkpt>
      <trkpt lat="48.60328" lon="1.98143">
        <ele>99.63</ele>
        <time>2018-03-29T08:53:09Z</time>
      </trkpt>
      <trkpt lat="48.60319" lon="1.98129">
        <ele>99.63</ele>
        <time>2018-03-29T08:53:18Z</time>
      </trkpt>
      <trkpt lat="48.60312" lon="1.98121">
        <ele>100.11</ele>
        <time>2018-03-29T08:53:24Z</time>
      </trkpt>
      <trkpt lat="48.60303" lon="1.98109">
        <ele>100.11</ele>
        <time>2018-03-29T08:53:32Z</time>
      </trkpt>
      <trkpt lat="48.60297" lon="1.98104">
        <ele>100.11</ele>
        <time>2018-03-29T08:53:36Z</time>
      </trkpt>
      <trkpt lat="48.60292" lon="1.98098">
        <ele>100.6</ele>
        <time>2018-03-29T08:53:39Z</time>
      </trkpt>
      <trkpt lat="48.60286" lon="1.98094">
        <ele>100.6</ele>
        <time>2018-03-29T08:53:42Z</time>
      </trkpt>
      <trkpt lat="48.60266" lon="1.98075">
        <ele>101.08</ele>
        <time>2018-03-29T08:53:56Z</time>
      </trkpt>
      <trkpt lat="48.60261" lon="1.98071">
        <ele>101.56</ele>
        <time>2018-03-29T08:53:59Z</time>
      </trkpt>
      <trkpt lat="48.60259" lon="1.98068">
        <ele>101.56</ele>
        <time>2018-03-29T08:54:01Z</time>
      </trkpt>
      <trkpt lat="48.60253" lon="1.98062">
        <ele>102.04</ele>
        <time>2018-03-29T08:54:05Z</time>
      </trkpt>
      <trkpt lat="48.60231" lon="1.98039">
        <ele>103</ele>
        <time>2018-03-29T08:54:21Z</time>
      </trkpt>
      <trkpt lat="48.60214" lon="1.98018">
        <ele>103.48</ele>
        <time>2018-03-29T08:54:34Z</time>
      </trkpt>
      <trkpt lat="48.60212" lon="1.98016">
        <ele>103.48</ele>
        <time>2018-03-29T08:54:36Z</time>
      </trkpt>
      <trkpt lat="48.602" lon="1.98002">
        <ele>104.44</ele>
        <time>2018-03-29T08:54:48Z</time>
      </trkpt>
      <trkpt lat="48.60185" lon="1.97989">
        <ele>104.44</ele>
        <time>2018-03-29T08:54:59Z</time>
      </trkpt>
      <trkpt lat="48.60175" lon="1.97974">
        <ele>104.92</ele>
        <time>2018-03-29T08:55:07Z</time>
      </trkpt>
      <trkpt lat="48.60155" lon="1.97957">
        <ele>104.44</ele>
        <time>2018-03-29T08:55:20Z</time>
      </trkpt>
      <trkpt lat="48.6014" lon="1.97947">
        <ele>104.44</ele>
        <time>2018-03-29T08:55:30Z</time>
      </trkpt>
      <trkpt lat="48.6013" lon="1.97932">
        <ele>104.92</ele>
        <time>2018-03-29T08:55:43Z</time>
      </trkpt>
      <trkpt lat="48.60124" lon="1.97926">
        <ele>105.4</ele>
        <time>2018-03-29T08:55:47Z</time>
      </trkpt>
      <trkpt lat="48.60108" lon="1.97905">
        <ele>105.88</ele>
        <time>2018-03-29T08:56:01Z</time>
      </trkpt>
      <trkpt lat="48.601" lon="1.97897">
        <ele>106.36</ele>
        <time>2018-03-29T08:56:07Z</time>
      </trkpt>
      <trkpt lat="48.60088" lon="1.97881">
        <ele>106.84</ele>
        <time>2018-03-29T08:56:16Z</time>
      </trkpt>
      <trkpt lat="48.60075" lon="1.97864">
        <ele>107.32</ele>
        <time>2018-03-29T08:56:28Z</time>
      </trkpt>
      <trkpt lat="48.60063" lon="1.97853">
        <ele>107.32</ele>
        <time>2018-03-29T08:56:38Z</time>
      </trkpt>
      <trkpt lat="48.60053" lon="1.97846">
        <ele>107.81</ele>
        <time>2018-03-29T08:56:47Z</time>
      </trkpt>
      <trkpt lat="48.60034" lon="1.97826">
        <ele>107.81</ele>
        <time>2018-03-29T08:57:01Z</time>
      </trkpt>
      <trkpt lat="48.60018" lon="1.9781">
        <ele>108.29</ele>
        <time>2018-03-29T08:57:13Z</time>
      </trkpt>
      <trkpt lat="48.60017" lon="1.97809">
        <ele>108.77</ele>
        <time>2018-03-29T08:57:14Z</time>
      </trkpt>
      <trkpt lat="48.59997" lon="1.97788">
        <ele>110.21</ele>
        <time>2018-03-29T08:57:28Z</time>
      </trkpt>
      <trkpt lat="48.59993" lon="1.97755">
        <ele>109.73</ele>
        <time>2018-03-29T08:57:42Z</time>
      </trkpt>
      <trkpt lat="48.59989" lon="1.97734">
        <ele>110.21</ele>
        <time>2018-03-29T08:57:53Z</time>
      </trkpt>
      <trkpt lat="48.5998" lon="1.97711">
        <ele>110.21</ele>
        <time>2018-03-29T08:58:05Z</time>
      </trkpt>
      <trkpt lat="48.5999" lon="1.97671">
        <ele>112.13</ele>
        <time>2018-03-29T08:58:22Z</time>
      </trkpt>
      <trkpt lat="48.60003" lon="1.9764">
        <ele>113.09</ele>
        <time>2018-03-29T08:58:38Z</time>
      </trkpt>
      <trkpt lat="48.60019" lon="1.97608">
        <ele>114.53</ele>
        <time>2018-03-29T08:58:55Z</time>
      </trkpt>
      <trkpt lat="48.60039" lon="1.9757">
        <ele>115.5</ele>
        <time>2018-03-29T08:59:14Z</time>
      </trkpt>
      <trkpt lat="48.60053" lon="1.97536">
        <ele>117.42</ele>
        <time>2018-03-29T08:59:31Z</time>
      </trkpt>
      <trkpt lat="48.60069" lon="1.97507">
        <ele>118.86</ele>
        <time>2018-03-29T08:59:47Z</time>
      </trkpt>
      <trkpt lat="48.60071" lon="1.97501">
        <ele>119.34</ele>
        <time>2018-03-29T08:59:49Z</time>
      </trkpt>
      <trkpt lat="48.60085" lon="1.97462">
        <ele>122.71</ele>
        <time>2018-03-29T09:00:09Z</time>
      </trkpt>
      <trkpt lat="48.60086" lon="1.9746">
        <ele>122.71</ele>
        <time>2018-03-29T09:00:10Z</time>
      </trkpt>
      <trkpt lat="48.60093" lon="1.97441">
        <ele>124.63</ele>
        <time>2018-03-29T09:00:21Z</time>
      </trkpt>
      <trkpt lat="48.60096" lon="1.97434">
        <ele>126.07</ele>
        <time>2018-03-29T09:00:25Z</time>
      </trkpt>
      <trkpt lat="48.60099" lon="1.97426">
        <ele>127.51</ele>
        <time>2018-03-29T09:00:30Z</time>
      </trkpt>
      <trkpt lat="48.60104" lon="1.97416">
        <ele>129.43</ele>
        <time>2018-03-29T09:00:37Z</time>
      </trkpt>
      <trkpt lat="48.60109" lon="1.97409">
        <ele>129.92</ele>
        <time>2018-03-29T09:00:42Z</time>
      </trkpt>
      <trkpt lat="48.60111" lon="1.97405">
        <ele>131.36</ele>
        <time>2018-03-29T09:00:45Z</time>
      </trkpt>
      <trkpt lat="48.60112" lon="1.97403">
        <ele>131.36</ele>
        <time>2018-03-29T09:00:47Z</time>
      </trkpt>
      <trkpt lat="48.60115" lon="1.97396">
        <ele>132.8</ele>
        <time>2018-03-29T09:00:51Z</time>
      </trkpt>
      <trkpt lat="48.6012" lon="1.97383">
        <ele>134.72</ele>
        <time>2018-03-29T09:01:03Z</time>
      </trkpt>
      <trkpt lat="48.60125" lon="1.97375">
        <ele>135.2</ele>
        <time>2018-03-29T09:01:09Z</time>
      </trkpt>
      <trkpt lat="48.60127" lon="1.9737">
        <ele>136.64</ele>
        <time>2018-03-29T09:01:12Z</time>
      </trkpt>
      <trkpt lat="48.60135" lon="1.97349">
        <ele>139.05</ele>
        <time>2018-03-29T09:01:26Z</time>
      </trkpt>
      <trkpt lat="48.60141" lon="1.97332">
        <ele>139.53</ele>
        <time>2018-03-29T09:01:40Z</time>
      </trkpt>
      <trkpt lat="48.60141" lon="1.97327">
        <ele>140.01</ele>
        <time>2018-03-29T09:01:51Z</time>
      </trkpt>
      <trkpt lat="48.60142" lon="1.97323">
        <ele>139.53</ele>
        <time>2018-03-29T09:02:08Z</time>
      </trkpt>
      <trkpt lat="48.60143" lon="1.97325">
        <ele>140.01</ele>
        <time>2018-03-29T09:02:29Z</time>
      </trkpt>
      <trkpt lat="48.60144" lon="1.97327">
        <ele>139.05</ele>
        <time>2018-03-29T09:02:45Z</time>
      </trkpt>
      <trkpt lat="48.60145" lon="1.97328">
        <ele>139.05</ele>
        <time>2018-03-29T09:03:10Z</time>
      </trkpt>
      <trkpt lat="48.60145" lon="1.97328">
        <ele>139.05</ele>
        <time>2018-03-29T09:03:23Z</time>
      </trkpt>
      <trkpt lat="48.60144" lon="1.97332">
        <ele>139.05</ele>
        <time>2018-03-29T09:03:43Z</time>
      </trkpt>
      <trkpt lat="48.60141" lon="1.97326">
        <ele>138.57</ele>
        <time>2018-03-29T09:03:56Z</time>
      </trkpt>
      <trkpt lat="48.6014" lon="1.97324">
        <ele>139.05</ele>
        <time>2018-03-29T09:03:59Z</time>
      </trkpt>
      <trkpt lat="48.60123" lon="1.9731">
        <ele>139.05</ele>
        <time>2018-03-29T09:04:13Z</time>
      </trkpt>
      <trkpt lat="48.60109" lon="1.97297">
        <ele>139.05</ele>
        <time>2018-03-29T09:04:25Z</time>
      </trkpt>
      <trkpt lat="48.60101" lon="1.97288">
        <ele>138.57</ele>
        <time>2018-03-29T09:04:34Z</time>
      </trkpt>
      <trkpt lat="48.60099" lon="1.97285">
        <ele>138.57</ele>
        <time>2018-03-29T09:04:36Z</time>
      </trkpt>
      <trkpt lat="48.6008" lon="1.97267">
        <ele>138.09</ele>
        <time>2018-03-29T09:04:50Z</time>
      </trkpt>
      <trkpt lat="48.60061" lon="1.97247">
        <ele>137.61</ele>
        <time>2018-03-29T09:05:03Z</time>
      </trkpt>
      <trkpt lat="48.60048" lon="1.97232">
        <ele>136.16</ele>
        <time>2018-03-29T09:05:13Z</time>
      </trkpt>
      <trkpt lat="48.60031" lon="1.97218">
        <ele>133.28</ele>
        <time>2018-03-29T09:05:26Z</time>
      </trkpt>
      <trkpt lat="48.60012" lon="1.972">
        <ele>131.84</ele>
        <time>2018-03-29T09:05:41Z</time>
      </trkpt>
      <trkpt lat="48.59995" lon="1.97181">
        <ele>132.32</ele>
        <time>2018-03-29T09:05:54Z</time>
      </trkpt>
      <trkpt lat="48.59973" lon="1.97157">
        <ele>132.32</ele>
        <time>2018-03-29T09:06:09Z</time>
      </trkpt>
      <trkpt lat="48.59958" lon="1.97149">
        <ele>132.32</ele>
        <time>2018-03-29T09:06:23Z</time>
      </trkpt>
      <trkpt lat="48.59944" lon="1.97153">
        <ele>130.88</ele>
        <time>2018-03-29T09:06:36Z</time>
      </trkpt>
      <trkpt lat="48.59918" lon="1.97162">
        <ele>128.47</ele>
        <time>2018-03-29T09:06:53Z</time>
      </trkpt>
      <trkpt lat="48.59916" lon="1.97163">
        <ele>127.99</ele>
        <time>2018-03-29T09:06:54Z</time>
      </trkpt>
      <trkpt lat="48.59891" lon="1.97172">
        <ele>127.51</ele>
        <time>2018-03-29T09:07:10Z</time>
      </trkpt>
      <trkpt lat="48.59885" lon="1.97175">
        <ele>127.03</ele>
        <time>2018-03-29T09:07:13Z</time>
      </trkpt>
      <trkpt lat="48.59875" lon="1.9718">
        <ele>127.03</ele>
        <time>2018-03-29T09:07:18Z</time>
      </trkpt>
      <trkpt lat="48.5985" lon="1.9719">
        <ele>126.07</ele>
        <time>2018-03-29T09:07:35Z</time>
      </trkpt>
      <trkpt lat="48.59829" lon="1.97201">
        <ele>125.59</ele>
        <time>2018-03-29T09:07:51Z</time>
      </trkpt>
      <trkpt lat="48.59805" lon="1.97213">
        <ele>125.11</ele>
        <time>2018-03-29T09:08:07Z</time>
      </trkpt>
      <trkpt lat="48.59791" lon="1.97219">
        <ele>125.59</ele>
        <time>2018-03-29T09:08:17Z</time>
      </trkpt>
      <trkpt lat="48.59764" lon="1.9723">
        <ele>125.59</ele>
        <time>2018-03-29T09:08:33Z</time>
      </trkpt>
      <trkpt lat="48.59741" lon="1.97243">
        <ele>124.63</ele>
        <time>2018-03-29T09:08:48Z</time>
      </trkpt>
      <trkpt lat="48.59711" lon="1.97259">
        <ele>123.19</ele>
        <time>2018-03-29T09:09:08Z</time>
      </trkpt>
      <trkpt lat="48.59687" lon="1.9727">
        <ele>122.71</ele>
        <time>2018-03-29T09:09:24Z</time>
      </trkpt>
      <trkpt lat="48.59659" lon="1.97284">
        <ele>123.19</ele>
        <time>2018-03-29T09:09:39Z</time>
      </trkpt>
      <trkpt lat="48.59655" lon="1.97287">
        <ele>124.15</ele>
        <time>2018-03-29T09:09:42Z</time>
      </trkpt>
      <trkpt lat="48.59638" lon="1.97302">
        <ele>125.59</ele>
        <time>2018-03-29T09:09:58Z</time>
      </trkpt>
      <trkpt lat="48.59619" lon="1.97313">
        <ele>126.55</ele>
        <time>2018-03-29T09:10:11Z</time>
      </trkpt>
      <trkpt lat="48.59601" lon="1.97323">
        <ele>127.99</ele>
        <time>2018-03-29T09:10:24Z</time>
      </trkpt>
      <trkpt lat="48.59579" lon="1.97332">
        <ele>128.47</ele>
        <time>2018-03-29T09:10:41Z</time>
      </trkpt>
      <trkpt lat="48.59558" lon="1.97342">
        <ele>128.47</ele>
        <time>2018-03-29T09:10:57Z</time>
      </trkpt>
      <trkpt lat="48.59548" lon="1.97342">
        <ele>128.95</ele>
        <time>2018-03-29T09:11:08Z</time>
      </trkpt>
      <trkpt lat="48.59542" lon="1.97348">
        <ele>128.47</ele>
        <time>2018-03-29T09:11:10Z</time>
      </trkpt>
      <trkpt lat="48.59521" lon="1.97367">
        <ele>128.95</ele>
        <time>2018-03-29T09:11:21Z</time>
      </trkpt>
      <trkpt lat="48.59517" lon="1.9737">
        <ele>128.95</ele>
        <time>2018-03-29T09:11:24Z</time>
      </trkpt>
      <trkpt lat="48.59513" lon="1.97376">
        <ele>128.95</ele>
        <time>2018-03-29T09:11:28Z</time>
      </trkpt>
      <trkpt lat="48.59496" lon="1.97395">
        <ele>130.88</ele>
        <time>2018-03-29T09:11:43Z</time>
      </trkpt>
      <trkpt lat="48.59485" lon="1.97408">
        <ele>130.88</ele>
        <time>2018-03-29T09:11:53Z</time>
      </trkpt>
      <trkpt lat="48.5948" lon="1.97418">
        <ele>130.88</ele>
        <time>2018-03-29T09:12:01Z</time>
      </trkpt>
      <trkpt lat="48.59478" lon="1.9742">
        <ele>130.88</ele>
        <time>2018-03-29T09:12:15Z</time>
      </trkpt>
      <trkpt lat="48.5948" lon="1.97418">
        <ele>130.88</ele>
        <time>2018-03-29T09:12:35Z</time>
      </trkpt>
      <trkpt lat="48.5948" lon="1.97418">
        <ele>130.88</ele>
        <time>2018-03-29T09:12:59Z</time>
      </trkpt>
      <trkpt lat="48.5948" lon="1.97417">
        <ele>126.55</ele>
        <time>2018-03-29T09:13:04Z</time>
      </trkpt>
      <trkpt lat="48.5948" lon="1.97417">
        <ele>132.32</ele>
        <time>2018-03-29T09:13:05Z</time>
      </trkpt>
      <trkpt lat="48.5948" lon="1.97416">
        <ele>130.88</ele>
        <time>2018-03-29T09:13:06Z</time>
      </trkpt>
      <trkpt lat="48.59478" lon="1.97417">
        <ele>130.4</ele>
        <time>2018-03-29T09:13:21Z</time>
      </trkpt>
      <trkpt lat="48.59479" lon="1.97418">
        <ele>130.4</ele>
        <time>2018-03-29T09:13:49Z</time>
      </trkpt>
      <trkpt lat="48.59479" lon="1.97414">
        <ele>130.88</ele>
        <time>2018-03-29T09:14:06Z</time>
      </trkpt>
      <trkpt lat="48.59478" lon="1.97411">
        <ele>129.92</ele>
        <time>2018-03-29T09:14:09Z</time>
      </trkpt>
      <trkpt lat="48.59469" lon="1.97376">
        <ele>131.36</ele>
        <time>2018-03-29T09:14:26Z</time>
      </trkpt>
      <trkpt lat="48.59468" lon="1.97362">
        <ele>132.32</ele>
        <time>2018-03-29T09:14:33Z</time>
      </trkpt>
      <trkpt lat="48.59462" lon="1.97336">
        <ele>134.24</ele>
        <time>2018-03-29T09:14:47Z</time>
      </trkpt>
      <trkpt lat="48.5946" lon="1.97328">
        <ele>136.64</ele>
        <time>2018-03-29T09:14:53Z</time>
      </trkpt>
      <trkpt lat="48.59456" lon="1.97308">
        <ele>141.45</ele>
        <time>2018-03-29T09:15:06Z</time>
      </trkpt>
      <trkpt lat="48.59456" lon="1.97307">
        <ele>140.49</ele>
        <time>2018-03-29T09:15:07Z</time>
      </trkpt>
      <trkpt lat="48.59453" lon="1.97297">
        <ele>143.85</ele>
        <time>2018-03-29T09:15:16Z</time>
      </trkpt>
      <trkpt lat="48.59451" lon="1.97292">
        <ele>144.34</ele>
        <time>2018-03-29T09:15:20Z</time>
      </trkpt>
      <trkpt lat="48.59449" lon="1.9729">
        <ele>144.82</ele>
        <time>2018-03-29T09:15:22Z</time>
      </trkpt>
      <trkpt lat="48.59436" lon="1.97269">
        <ele>147.22</ele>
        <time>2018-03-29T09:15:37Z</time>
      </trkpt>
      <trkpt lat="48.5943" lon="1.97258">
        <ele>148.66</ele>
        <time>2018-03-29T09:15:44Z</time>
      </trkpt>
      <trkpt lat="48.59428" lon="1.9725">
        <ele>149.62</ele>
        <time>2018-03-29T09:15:49Z</time>
      </trkpt>
      <trkpt lat="48.59422" lon="1.97242">
        <ele>149.62</ele>
        <time>2018-03-29T09:15:55Z</time>
      </trkpt>
      <trkpt lat="48.59423" lon="1.97238">
        <ele>150.1</ele>
        <time>2018-03-29T09:15:57Z</time>
      </trkpt>
      <trkpt lat="48.59424" lon="1.97232">
        <ele>150.1</ele>
        <time>2018-03-29T09:16:01Z</time>
      </trkpt>
      <trkpt lat="48.59426" lon="1.97228">
        <ele>150.58</ele>
        <time>2018-03-29T09:16:04Z</time>
      </trkpt>
      <trkpt lat="48.59426" lon="1.97223">
        <ele>150.58</ele>
        <time>2018-03-29T09:16:07Z</time>
      </trkpt>
      <trkpt lat="48.5943" lon="1.97208">
        <ele>151.54</ele>
        <time>2018-03-29T09:16:15Z</time>
      </trkpt>
      <trkpt lat="48.59439" lon="1.9719">
        <ele>151.54</ele>
        <time>2018-03-29T09:16:27Z</time>
      </trkpt>
      <trkpt lat="48.5944" lon="1.97168">
        <ele>151.54</ele>
        <time>2018-03-29T09:16:36Z</time>
      </trkpt>
      <trkpt lat="48.59433" lon="1.97151">
        <ele>152.03</ele>
        <time>2018-03-29T09:16:46Z</time>
      </trkpt>
      <trkpt lat="48.59431" lon="1.97141">
        <ele>151.54</ele>
        <time>2018-03-29T09:16:50Z</time>
      </trkpt>
      <trkpt lat="48.59434" lon="1.97113">
        <ele>152.03</ele>
        <time>2018-03-29T09:17:00Z</time>
      </trkpt>
      <trkpt lat="48.59434" lon="1.97096">
        <ele>151.54</ele>
        <time>2018-03-29T09:17:07Z</time>
      </trkpt>
      <trkpt lat="48.59435" lon="1.97088">
        <ele>152.03</ele>
        <time>2018-03-29T09:17:11Z</time>
      </trkpt>
      <trkpt lat="48.59429" lon="1.97073">
        <ele>151.54</ele>
        <time>2018-03-29T09:17:20Z</time>
      </trkpt>
      <trkpt lat="48.59421" lon="1.97039">
        <ele>151.54</ele>
        <time>2018-03-29T09:17:37Z</time>
      </trkpt>
      <trkpt lat="48.5942" lon="1.97032">
        <ele>151.54</ele>
        <time>2018-03-29T09:17:40Z</time>
      </trkpt>
      <trkpt lat="48.59421" lon="1.97019">
        <ele>151.06</ele>
        <time>2018-03-29T09:17:46Z</time>
      </trkpt>
      <trkpt lat="48.59422" lon="1.97013">
        <ele>151.06</ele>
        <time>2018-03-29T09:17:49Z</time>
      </trkpt>
      <trkpt lat="48.59422" lon="1.97007">
        <ele>151.54</ele>
        <time>2018-03-29T09:17:51Z</time>
      </trkpt>
      <trkpt lat="48.59423" lon="1.9699">
        <ele>152.03</ele>
        <time>2018-03-29T09:17:57Z</time>
      </trkpt>
      <trkpt lat="48.59423" lon="1.96979">
        <ele>150.1</ele>
        <time>2018-03-29T09:18:01Z</time>
      </trkpt>
      <trkpt lat="48.59422" lon="1.96971">
        <ele>150.1</ele>
        <time>2018-03-29T09:18:04Z</time>
      </trkpt>
      <trkpt lat="48.59409" lon="1.96946">
        <ele>151.06</ele>
        <time>2018-03-29T09:18:17Z</time>
      </trkpt>
      <trkpt lat="48.59408" lon="1.96937">
        <ele>151.06</ele>
        <time>2018-03-29T09:18:21Z</time>
      </trkpt>
      <trkpt lat="48.59406" lon="1.96915">
        <ele>151.54</ele>
        <time>2018-03-29T09:18:33Z</time>
      </trkpt>
      <trkpt lat="48.59408" lon="1.9688">
        <ele>151.54</ele>
        <time>2018-03-29T09:18:47Z</time>
      </trkpt>
      <trkpt lat="48.59419" lon="1.96862">
        <ele>150.1</ele>
        <time>2018-03-29T09:18:58Z</time>
      </trkpt>
      <trkpt lat="48.59435" lon="1.96856">
        <ele>148.18</ele>
        <time>2018-03-29T09:19:11Z</time>
      </trkpt>
      <trkpt lat="48.59439" lon="1.96852">
        <ele>147.22</ele>
        <time>2018-03-29T09:19:15Z</time>
      </trkpt>
      <trkpt lat="48.59442" lon="1.96845">
        <ele>146.74</ele>
        <time>2018-03-29T09:19:19Z</time>
      </trkpt>
      <trkpt lat="48.59443" lon="1.96836">
        <ele>146.26</ele>
        <time>2018-03-29T09:19:23Z</time>
      </trkpt>
      <trkpt lat="48.59442" lon="1.96817">
        <ele>144.34</ele>
        <time>2018-03-29T09:19:32Z</time>
      </trkpt>
      <trkpt lat="48.59437" lon="1.96803">
        <ele>142.89</ele>
        <time>2018-03-29T09:19:39Z</time>
      </trkpt>
      <trkpt lat="48.59429" lon="1.96777">
        <ele>141.93</ele>
        <time>2018-03-29T09:19:51Z</time>
      </trkpt>
      <trkpt lat="48.59421" lon="1.96758">
        <ele>140.01</ele>
        <time>2018-03-29T09:20:02Z</time>
      </trkpt>
      <trkpt lat="48.59417" lon="1.96743">
        <ele>139.53</ele>
        <time>2018-03-29T09:20:09Z</time>
      </trkpt>
      <trkpt lat="48.59415" lon="1.96713">
        <ele>136.16</ele>
        <time>2018-03-29T09:20:23Z</time>
      </trkpt>
      <trkpt lat="48.59411" lon="1.96706">
        <ele>136.16</ele>
        <time>2018-03-29T09:20:28Z</time>
      </trkpt>
      <trkpt lat="48.59401" lon="1.96696">
        <ele>135.2</ele>
        <time>2018-03-29T09:20:40Z</time>
      </trkpt>
      <trkpt lat="48.59401" lon="1.96694">
        <ele>135.2</ele>
        <time>2018-03-29T09:20:57Z</time>
      </trkpt>
      <trkpt lat="48.59401" lon="1.96693">
        <ele>135.2</ele>
        <time>2018-03-29T09:21:19Z</time>
      </trkpt>
      <trkpt lat="48.59401" lon="1.96693">
        <ele>135.2</ele>
        <time>2018-03-29T09:21:43Z</time>
      </trkpt>
      <trkpt lat="48.59401" lon="1.96693">
        <ele>135.2</ele>
        <time>2018-03-29T09:22:06Z</time>
      </trkpt>
      <trkpt lat="48.594" lon="1.96697">
        <ele>135.68</ele>
        <time>2018-03-29T09:22:29Z</time>
      </trkpt>
      <trkpt lat="48.59389" lon="1.96723">
        <ele>135.68</ele>
        <time>2018-03-29T09:22:44Z</time>
      </trkpt>
      <trkpt lat="48.5938" lon="1.96743">
        <ele>135.68</ele>
        <time>2018-03-29T09:22:57Z</time>
      </trkpt>
      <trkpt lat="48.59367" lon="1.9677">
        <ele>137.13</ele>
        <time>2018-03-29T09:23:12Z</time>
      </trkpt>
      <trkpt lat="48.5936" lon="1.96787">
        <ele>137.13</ele>
        <time>2018-03-29T09:23:22Z</time>
      </trkpt>
      <trkpt lat="48.59346" lon="1.96817">
        <ele>135.2</ele>
        <time>2018-03-29T09:23:36Z</time>
      </trkpt>
      <trkpt lat="48.59336" lon="1.96838">
        <ele>131.84</ele>
        <time>2018-03-29T09:23:50Z</time>
      </trkpt>
      <trkpt lat="48.59326" lon="1.96855">
        <ele>130.88</ele>
        <time>2018-03-29T09:24:01Z</time>
      </trkpt>
      <trkpt lat="48.59315" lon="1.96879">
        <ele>127.99</ele>
        <time>2018-03-29T09:24:15Z</time>
      </trkpt>
      <trkpt lat="48.59308" lon="1.96899">
        <ele>124.63</ele>
        <time>2018-03-29T09:24:26Z</time>
      </trkpt>
      <trkpt lat="48.59307" lon="1.96901">
        <ele>124.15</ele>
        <time>2018-03-29T09:24:27Z</time>
      </trkpt>
      <trkpt lat="48.59305" lon="1.96906">
        <ele>124.15</ele>
        <time>2018-03-29T09:24:30Z</time>
      </trkpt>
      <trkpt lat="48.5929" lon="1.96936">
        <ele>121.26</ele>
        <time>2018-03-29T09:24:46Z</time>
      </trkpt>
      <trkpt lat="48.59284" lon="1.96948">
        <ele>119.82</ele>
        <time>2018-03-29T09:24:53Z</time>
      </trkpt>
      <trkpt lat="48.59278" lon="1.96959">
        <ele>118.86</ele>
        <time>2018-03-29T09:24:58Z</time>
      </trkpt>
      <trkpt lat="48.59269" lon="1.96982">
        <ele>116.94</ele>
        <time>2018-03-29T09:25:11Z</time>
      </trkpt>
      <trkpt lat="48.59258" lon="1.97001">
        <ele>114.53</ele>
        <time>2018-03-29T09:25:24Z</time>
      </trkpt>
      <trkpt lat="48.59247" lon="1.97023">
        <ele>114.53</ele>
        <time>2018-03-29T09:25:36Z</time>
      </trkpt>
      <trkpt lat="48.59245" lon="1.9703">
        <ele>114.53</ele>
        <time>2018-03-29T09:25:41Z</time>
      </trkpt>
      <trkpt lat="48.59242" lon="1.97038">
        <ele>114.05</ele>
        <time>2018-03-29T09:25:45Z</time>
      </trkpt>
      <trkpt lat="48.59231" lon="1.97063">
        <ele>114.53</ele>
        <time>2018-03-29T09:25:58Z</time>
      </trkpt>
      <trkpt lat="48.59215" lon="1.97095">
        <ele>112.61</ele>
        <time>2018-03-29T09:26:14Z</time>
      </trkpt>
      <trkpt lat="48.59203" lon="1.97121">
        <ele>113.09</ele>
        <time>2018-03-29T09:26:30Z</time>
      </trkpt>
      <trkpt lat="48.59198" lon="1.97132">
        <ele>112.61</ele>
        <time>2018-03-29T09:26:39Z</time>
      </trkpt>
      <trkpt lat="48.59195" lon="1.97139">
        <ele>112.13</ele>
        <time>2018-03-29T09:26:42Z</time>
      </trkpt>
      <trkpt lat="48.59182" lon="1.9717">
        <ele>109.73</ele>
        <time>2018-03-29T09:26:57Z</time>
      </trkpt>
      <trkpt lat="48.5917" lon="1.97194">
        <ele>108.77</ele>
        <time>2018-03-29T09:27:11Z</time>
      </trkpt>
      <trkpt lat="48.59161" lon="1.97212">
        <ele>108.29</ele>
        <time>2018-03-29T09:27:24Z</time>
      </trkpt>
      <trkpt lat="48.59157" lon="1.97221">
        <ele>108.77</ele>
        <time>2018-03-29T09:27:28Z</time>
      </trkpt>
      <trkpt lat="48.59155" lon="1.97225">
        <ele>108.29</ele>
        <time>2018-03-29T09:27:30Z</time>
      </trkpt>
      <trkpt lat="48.59137" lon="1.97263">
        <ele>108.77</ele>
        <time>2018-03-29T09:27:48Z</time>
      </trkpt>
      <trkpt lat="48.59129" lon="1.97288">
        <ele>108.29</ele>
        <time>2018-03-29T09:28:02Z</time>
      </trkpt>
      <trkpt lat="48.59121" lon="1.97305">
        <ele>107.81</ele>
        <time>2018-03-29T09:28:12Z</time>
      </trkpt>
      <trkpt lat="48.59109" lon="1.97325">
        <ele>107.32</ele>
        <time>2018-03-29T09:28:25Z</time>
      </trkpt>
      <trkpt lat="48.59098" lon="1.97323">
        <ele>106.84</ele>
        <time>2018-03-29T09:28:34Z</time>
      </trkpt>
      <trkpt lat="48.59092" lon="1.97316">
        <ele>106.84</ele>
        <time>2018-03-29T09:28:39Z</time>
      </trkpt>
      <trkpt lat="48.59071" lon="1.973">
        <ele>106.36</ele>
        <time>2018-03-29T09:28:54Z</time>
      </trkpt>
      <trkpt lat="48.59069" lon="1.97299">
        <ele>105.88</ele>
        <time>2018-03-29T09:28:56Z</time>
      </trkpt>
      <trkpt lat="48.59055" lon="1.97285">
        <ele>104.92</ele>
        <time>2018-03-29T09:29:13Z</time>
      </trkpt>
      <trkpt lat="48.5904" lon="1.9727">
        <ele>104.44</ele>
        <time>2018-03-29T09:29:27Z</time>
      </trkpt>
      <trkpt lat="48.59026" lon="1.9725">
        <ele>104.44</ele>
        <time>2018-03-29T09:29:41Z</time>
      </trkpt>
      <trkpt lat="48.59026" lon="1.97241">
        <ele>103.96</ele>
        <time>2018-03-29T09:29:44Z</time>
      </trkpt>
      <trkpt lat="48.59033" lon="1.97213">
        <ele>104.44</ele>
        <time>2018-03-29T09:29:58Z</time>
      </trkpt>
      <trkpt lat="48.59034" lon="1.97181">
        <ele>104.44</ele>
        <time>2018-03-29T09:30:09Z</time>
      </trkpt>
      <trkpt lat="48.59035" lon="1.97172">
        <ele>103.96</ele>
        <time>2018-03-29T09:30:13Z</time>
      </trkpt>
      <trkpt lat="48.59045" lon="1.9714">
        <ele>103.96</ele>
        <time>2018-03-29T09:30:31Z</time>
      </trkpt>
      <trkpt lat="48.59046" lon="1.97108">
        <ele>103.96</ele>
        <time>2018-03-29T09:30:43Z</time>
      </trkpt>
      <trkpt lat="48.59053" lon="1.97091">
        <ele>104.92</ele>
        <time>2018-03-29T09:30:56Z</time>
      </trkpt>
      <trkpt lat="48.59055" lon="1.97075">
        <ele>104.44</ele>
        <time>2018-03-29T09:31:04Z</time>
      </trkpt>
      <trkpt lat="48.59056" lon="1.97071">
        <ele>104.92</ele>
        <time>2018-03-29T09:31:06Z</time>
      </trkpt>
      <trkpt lat="48.59055" lon="1.9704">
        <ele>105.4</ele>
        <time>2018-03-29T09:31:17Z</time>
      </trkpt>
      <trkpt lat="48.59064" lon="1.97018">
        <ele>105.4</ele>
        <time>2018-03-29T09:31:32Z</time>
      </trkpt>
      <trkpt lat="48.59067" lon="1.97002">
        <ele>105.88</ele>
        <time>2018-03-29T09:31:41Z</time>
      </trkpt>
      <trkpt lat="48.59069" lon="1.96996">
        <ele>105.4</ele>
        <time>2018-03-29T09:31:43Z</time>
      </trkpt>
      <trkpt lat="48.59073" lon="1.96971">
        <ele>105.4</ele>
        <time>2018-03-29T09:31:54Z</time>
      </trkpt>
      <trkpt lat="48.59076" lon="1.96958">
        <ele>105.88</ele>
        <time>2018-03-29T09:32:00Z</time>
      </trkpt>
      <trkpt lat="48.59081" lon="1.96938">
        <ele>106.36</ele>
        <time>2018-03-29T09:32:10Z</time>
      </trkpt>
      <trkpt lat="48.59082" lon="1.96925">
        <ele>105.4</ele>
        <time>2018-03-29T09:32:15Z</time>
      </trkpt>
      <trkpt lat="48.59088" lon="1.96904">
        <ele>105.88</ele>
        <time>2018-03-29T09:32:27Z</time>
      </trkpt>
      <trkpt lat="48.59091" lon="1.96894">
        <ele>106.36</ele>
        <time>2018-03-29T09:32:35Z</time>
      </trkpt>
      <trkpt lat="48.59092" lon="1.96889">
        <ele>105.88</ele>
        <time>2018-03-29T09:32:37Z</time>
      </trkpt>
      <trkpt lat="48.59099" lon="1.96874">
        <ele>106.36</ele>
        <time>2018-03-29T09:32:47Z</time>
      </trkpt>
      <trkpt lat="48.591" lon="1.9687">
        <ele>106.36</ele>
        <time>2018-03-29T09:32:49Z</time>
      </trkpt>
      <trkpt lat="48.59104" lon="1.96851">
        <ele>106.36</ele>
        <time>2018-03-29T09:33:01Z</time>
      </trkpt>
      <trkpt lat="48.5911" lon="1.96839">
        <ele>106.36</ele>
        <time>2018-03-29T09:33:08Z</time>
      </trkpt>
      <trkpt lat="48.59113" lon="1.96834">
        <ele>106.36</ele>
        <time>2018-03-29T09:33:11Z</time>
      </trkpt>
      <trkpt lat="48.5912" lon="1.96814">
        <ele>106.84</ele>
        <time>2018-03-29T09:33:22Z</time>
      </trkpt>
      <trkpt lat="48.59125" lon="1.96795">
        <ele>107.32</ele>
        <time>2018-03-29T09:33:33Z</time>
      </trkpt>
      <trkpt lat="48.5913" lon="1.96784">
        <ele>107.32</ele>
        <time>2018-03-29T09:33:38Z</time>
      </trkpt>
      <trkpt lat="48.59135" lon="1.96757">
        <ele>107.81</ele>
        <time>2018-03-29T09:33:50Z</time>
      </trkpt>
      <trkpt lat="48.59139" lon="1.96752">
        <ele>108.77</ele>
        <time>2018-03-29T09:33:55Z</time>
      </trkpt>
      <trkpt lat="48.59142" lon="1.96745">
        <ele>107.81</ele>
        <time>2018-03-29T09:34:01Z</time>
      </trkpt>
      <trkpt lat="48.59146" lon="1.96721">
        <ele>108.77</ele>
        <time>2018-03-29T09:34:11Z</time>
      </trkpt>
      <trkpt lat="48.5915" lon="1.96705">
        <ele>108.77</ele>
        <time>2018-03-29T09:34:21Z</time>
      </trkpt>
      <trkpt lat="48.59149" lon="1.96675">
        <ele>109.73</ele>
        <time>2018-03-29T09:34:35Z</time>
      </trkpt>
      <trkpt lat="48.59153" lon="1.96643">
        <ele>109.25</ele>
        <time>2018-03-29T09:34:51Z</time>
      </trkpt>
      <trkpt lat="48.59157" lon="1.96621">
        <ele>110.69</ele>
        <time>2018-03-29T09:35:05Z</time>
      </trkpt>
      <trkpt lat="48.59162" lon="1.96615">
        <ele>111.17</ele>
        <time>2018-03-29T09:35:10Z</time>
      </trkpt>
      <trkpt lat="48.59162" lon="1.96615">
        <ele>108.77</ele>
        <time>2018-03-29T09:35:20Z</time>
      </trkpt>
      <trkpt lat="48.59164" lon="1.96612">
        <ele>110.21</ele>
        <time>2018-03-29T09:35:25Z</time>
      </trkpt>
      <trkpt lat="48.59168" lon="1.96604">
        <ele>110.69</ele>
        <time>2018-03-29T09:35:39Z</time>
      </trkpt>
      <trkpt lat="48.5917" lon="1.96609">
        <ele>110.69</ele>
        <time>2018-03-29T09:35:58Z</time>
      </trkpt>
      <trkpt lat="48.59174" lon="1.96606">
        <ele>111.17</ele>
        <time>2018-03-29T09:36:14Z</time>
      </trkpt>
    </trkseg>
  </trk>
</gpx>